<?xml version="1.0" encoding="UTF-8" standalone="no" ?>
<gpx xmlns="http://www.topografix.com/GPX/1/1" xmlns:xsi="http://www.w3.org/2001/XMLSchema-instance" xsi:schemaLocation="http://www.topografix.com/GPX/1/1 http://www.topografix.com/GPX/1/1/gpx.xsd" version="1.1" creator="VisuGPX - https://www.visugpx.com">
  <metadata>
    <name>2021-07-18 17:51:47</name>
  </metadata>
  <trk>
    <name><![CDATA[2021-07-18 17:51:47]]></name>
    <trkseg>
      <trkpt lat="45.59326" lon="2.76314">
        <ele>908.5</ele>
        <time>2021-07-18T13:35:11Z</time>
      </trkpt>
      <trkpt lat="45.59327" lon="2.76314">
        <ele>908.5</ele>
        <time>2021-07-18T13:35:12Z</time>
      </trkpt>
      <trkpt lat="45.59331" lon="2.76313">
        <ele>908.7</ele>
        <time>2021-07-18T13:35:15Z</time>
      </trkpt>
      <trkpt lat="45.59332" lon="2.76314">
        <ele>908.8</ele>
        <time>2021-07-18T13:35:16Z</time>
      </trkpt>
      <trkpt lat="45.59346" lon="2.7632">
        <ele>910.5</ele>
        <time>2021-07-18T13:35:28Z</time>
      </trkpt>
      <trkpt lat="45.59361" lon="2.76322">
        <ele>912</ele>
        <time>2021-07-18T13:35:39Z</time>
      </trkpt>
      <trkpt lat="45.59377" lon="2.76326">
        <ele>913.8</ele>
        <time>2021-07-18T13:35:55Z</time>
      </trkpt>
      <trkpt lat="45.59395" lon="2.7633">
        <ele>915.8</ele>
        <time>2021-07-18T13:36:12Z</time>
      </trkpt>
      <trkpt lat="45.5941" lon="2.76334">
        <ele>917.3</ele>
        <time>2021-07-18T13:36:26Z</time>
      </trkpt>
      <trkpt lat="45.5942" lon="2.76337">
        <ele>918.7</ele>
        <time>2021-07-18T13:36:36Z</time>
      </trkpt>
      <trkpt lat="45.59431" lon="2.76339">
        <ele>920.8</ele>
        <time>2021-07-18T13:36:48Z</time>
      </trkpt>
      <trkpt lat="45.59448" lon="2.76345">
        <ele>924.1</ele>
        <time>2021-07-18T13:37:04Z</time>
      </trkpt>
      <trkpt lat="45.59458" lon="2.76354">
        <ele>926.1</ele>
        <time>2021-07-18T13:37:17Z</time>
      </trkpt>
      <trkpt lat="45.59458" lon="2.76362">
        <ele>926.1</ele>
        <time>2021-07-18T13:37:22Z</time>
      </trkpt>
      <trkpt lat="45.59456" lon="2.76386">
        <ele>926</ele>
        <time>2021-07-18T13:37:36Z</time>
      </trkpt>
      <trkpt lat="45.59456" lon="2.76403">
        <ele>926</ele>
        <time>2021-07-18T13:37:47Z</time>
      </trkpt>
      <trkpt lat="45.5945" lon="2.76419">
        <ele>925</ele>
        <time>2021-07-18T13:37:59Z</time>
      </trkpt>
      <trkpt lat="45.59441" lon="2.7644">
        <ele>924.2</ele>
        <time>2021-07-18T13:38:13Z</time>
      </trkpt>
      <trkpt lat="45.59438" lon="2.76444">
        <ele>923.9</ele>
        <time>2021-07-18T13:38:16Z</time>
      </trkpt>
      <trkpt lat="45.59429" lon="2.76467">
        <ele>923.3</ele>
        <time>2021-07-18T13:38:32Z</time>
      </trkpt>
      <trkpt lat="45.59421" lon="2.76488">
        <ele>923.1</ele>
        <time>2021-07-18T13:38:46Z</time>
      </trkpt>
      <trkpt lat="45.59411" lon="2.76509">
        <ele>923.6</ele>
        <time>2021-07-18T13:39:02Z</time>
      </trkpt>
      <trkpt lat="45.59415" lon="2.7653">
        <ele>927.6</ele>
        <time>2021-07-18T13:39:14Z</time>
      </trkpt>
      <trkpt lat="45.59419" lon="2.76548">
        <ele>931.4</ele>
        <time>2021-07-18T13:39:27Z</time>
      </trkpt>
      <trkpt lat="45.59412" lon="2.76561">
        <ele>932.4</ele>
        <time>2021-07-18T13:39:38Z</time>
      </trkpt>
      <trkpt lat="45.59405" lon="2.76568">
        <ele>931.9</ele>
        <time>2021-07-18T13:39:48Z</time>
      </trkpt>
      <trkpt lat="45.59402" lon="2.76571">
        <ele>931.7</ele>
        <time>2021-07-18T13:39:52Z</time>
      </trkpt>
      <trkpt lat="45.59401" lon="2.76572">
        <ele>931.5</ele>
        <time>2021-07-18T13:39:54Z</time>
      </trkpt>
      <trkpt lat="45.59392" lon="2.76581">
        <ele>930.7</ele>
        <time>2021-07-18T13:40:03Z</time>
      </trkpt>
      <trkpt lat="45.59377" lon="2.76592">
        <ele>930.8</ele>
        <time>2021-07-18T13:40:17Z</time>
      </trkpt>
      <trkpt lat="45.59365" lon="2.76596">
        <ele>928.9</ele>
        <time>2021-07-18T13:40:29Z</time>
      </trkpt>
      <trkpt lat="45.59352" lon="2.76602">
        <ele>927.3</ele>
        <time>2021-07-18T13:40:40Z</time>
      </trkpt>
      <trkpt lat="45.59339" lon="2.7661">
        <ele>926.4</ele>
        <time>2021-07-18T13:40:51Z</time>
      </trkpt>
      <trkpt lat="45.59328" lon="2.76618">
        <ele>925.8</ele>
        <time>2021-07-18T13:41:03Z</time>
      </trkpt>
      <trkpt lat="45.5932" lon="2.76623">
        <ele>925.1</ele>
        <time>2021-07-18T13:41:10Z</time>
      </trkpt>
      <trkpt lat="45.59307" lon="2.76634">
        <ele>924.3</ele>
        <time>2021-07-18T13:41:21Z</time>
      </trkpt>
      <trkpt lat="45.59298" lon="2.76639">
        <ele>922.7</ele>
        <time>2021-07-18T13:41:29Z</time>
      </trkpt>
      <trkpt lat="45.59286" lon="2.7664">
        <ele>919.5</ele>
        <time>2021-07-18T13:41:40Z</time>
      </trkpt>
      <trkpt lat="45.59268" lon="2.76638">
        <ele>913.9</ele>
        <time>2021-07-18T13:41:54Z</time>
      </trkpt>
      <trkpt lat="45.59253" lon="2.7664">
        <ele>909.9</ele>
        <time>2021-07-18T13:42:06Z</time>
      </trkpt>
      <trkpt lat="45.5924" lon="2.76648">
        <ele>908.5</ele>
        <time>2021-07-18T13:42:16Z</time>
      </trkpt>
      <trkpt lat="45.59239" lon="2.76649">
        <ele>908.4</ele>
        <time>2021-07-18T13:42:17Z</time>
      </trkpt>
      <trkpt lat="45.59232" lon="2.7665">
        <ele>907.7</ele>
        <time>2021-07-18T13:42:22Z</time>
      </trkpt>
      <trkpt lat="45.59223" lon="2.76641">
        <ele>906.1</ele>
        <time>2021-07-18T13:42:31Z</time>
      </trkpt>
      <trkpt lat="45.59208" lon="2.76631">
        <ele>904</ele>
        <time>2021-07-18T13:42:46Z</time>
      </trkpt>
      <trkpt lat="45.59196" lon="2.76623">
        <ele>902.4</ele>
        <time>2021-07-18T13:42:58Z</time>
      </trkpt>
      <trkpt lat="45.59194" lon="2.76622">
        <ele>902.2</ele>
        <time>2021-07-18T13:42:59Z</time>
      </trkpt>
      <trkpt lat="45.59183" lon="2.76613">
        <ele>900.9</ele>
        <time>2021-07-18T13:43:10Z</time>
      </trkpt>
      <trkpt lat="45.59168" lon="2.76606">
        <ele>899.4</ele>
        <time>2021-07-18T13:43:25Z</time>
      </trkpt>
      <trkpt lat="45.59164" lon="2.76597">
        <ele>898.9</ele>
        <time>2021-07-18T13:43:32Z</time>
      </trkpt>
      <trkpt lat="45.59165" lon="2.76581">
        <ele>898.8</ele>
        <time>2021-07-18T13:43:44Z</time>
      </trkpt>
      <trkpt lat="45.59172" lon="2.76561">
        <ele>898.8</ele>
        <time>2021-07-18T13:43:56Z</time>
      </trkpt>
      <trkpt lat="45.59173" lon="2.76545">
        <ele>898.6</ele>
        <time>2021-07-18T13:44:07Z</time>
      </trkpt>
      <trkpt lat="45.59168" lon="2.76536">
        <ele>898</ele>
        <time>2021-07-18T13:44:18Z</time>
      </trkpt>
      <trkpt lat="45.59158" lon="2.76523">
        <ele>896.7</ele>
        <time>2021-07-18T13:44:32Z</time>
      </trkpt>
      <trkpt lat="45.59148" lon="2.76525">
        <ele>895.9</ele>
        <time>2021-07-18T13:44:45Z</time>
      </trkpt>
      <trkpt lat="45.59145" lon="2.76528">
        <ele>895.7</ele>
        <time>2021-07-18T13:44:49Z</time>
      </trkpt>
      <trkpt lat="45.5914" lon="2.76543">
        <ele>895.6</ele>
        <time>2021-07-18T13:44:59Z</time>
      </trkpt>
      <trkpt lat="45.59132" lon="2.76547">
        <ele>895</ele>
        <time>2021-07-18T13:45:08Z</time>
      </trkpt>
      <trkpt lat="45.59122" lon="2.76551">
        <ele>894.3</ele>
        <time>2021-07-18T13:45:19Z</time>
      </trkpt>
      <trkpt lat="45.59115" lon="2.76556">
        <ele>893.8</ele>
        <time>2021-07-18T13:45:30Z</time>
      </trkpt>
      <trkpt lat="45.59105" lon="2.76559">
        <ele>893</ele>
        <time>2021-07-18T13:45:40Z</time>
      </trkpt>
      <trkpt lat="45.591" lon="2.76558">
        <ele>892.5</ele>
        <time>2021-07-18T13:45:44Z</time>
      </trkpt>
      <trkpt lat="45.59081" lon="2.76552">
        <ele>890.8</ele>
        <time>2021-07-18T13:45:57Z</time>
      </trkpt>
      <trkpt lat="45.59063" lon="2.76543">
        <ele>890.1</ele>
        <time>2021-07-18T13:46:13Z</time>
      </trkpt>
      <trkpt lat="45.5906" lon="2.76539">
        <ele>889.9</ele>
        <time>2021-07-18T13:46:19Z</time>
      </trkpt>
      <trkpt lat="45.59058" lon="2.76538">
        <ele>889.8</ele>
        <time>2021-07-18T13:46:21Z</time>
      </trkpt>
      <trkpt lat="45.59043" lon="2.76542">
        <ele>889.5</ele>
        <time>2021-07-18T13:46:30Z</time>
      </trkpt>
      <trkpt lat="45.59035" lon="2.76561">
        <ele>889.8</ele>
        <time>2021-07-18T13:46:44Z</time>
      </trkpt>
      <trkpt lat="45.59036" lon="2.76563">
        <ele>889.8</ele>
        <time>2021-07-18T13:46:46Z</time>
      </trkpt>
      <trkpt lat="45.59041" lon="2.76572">
        <ele>890.2</ele>
        <time>2021-07-18T13:46:53Z</time>
      </trkpt>
      <trkpt lat="45.59051" lon="2.76592">
        <ele>891.1</ele>
        <time>2021-07-18T13:47:07Z</time>
      </trkpt>
      <trkpt lat="45.59053" lon="2.76609">
        <ele>891.7</ele>
        <time>2021-07-18T13:47:17Z</time>
      </trkpt>
      <trkpt lat="45.59053" lon="2.76618">
        <ele>892</ele>
        <time>2021-07-18T13:47:21Z</time>
      </trkpt>
      <trkpt lat="45.59053" lon="2.76637">
        <ele>892.6</ele>
        <time>2021-07-18T13:47:31Z</time>
      </trkpt>
      <trkpt lat="45.59047" lon="2.76655">
        <ele>892.9</ele>
        <time>2021-07-18T13:47:43Z</time>
      </trkpt>
      <trkpt lat="45.59037" lon="2.76668">
        <ele>892.8</ele>
        <time>2021-07-18T13:47:54Z</time>
      </trkpt>
      <trkpt lat="45.59024" lon="2.76676">
        <ele>892.4</ele>
        <time>2021-07-18T13:48:04Z</time>
      </trkpt>
      <trkpt lat="45.59013" lon="2.7668">
        <ele>892</ele>
        <time>2021-07-18T13:48:13Z</time>
      </trkpt>
      <trkpt lat="45.59" lon="2.7668">
        <ele>891.3</ele>
        <time>2021-07-18T13:48:23Z</time>
      </trkpt>
      <trkpt lat="45.58983" lon="2.76675">
        <ele>892</ele>
        <time>2021-07-18T13:48:36Z</time>
      </trkpt>
      <trkpt lat="45.58975" lon="2.76673">
        <ele>892.3</ele>
        <time>2021-07-18T13:48:43Z</time>
      </trkpt>
      <trkpt lat="45.58968" lon="2.7667">
        <ele>892.6</ele>
        <time>2021-07-18T13:48:48Z</time>
      </trkpt>
      <trkpt lat="45.58951" lon="2.76671">
        <ele>893.4</ele>
        <time>2021-07-18T13:49:02Z</time>
      </trkpt>
      <trkpt lat="45.58947" lon="2.76676">
        <ele>893.7</ele>
        <time>2021-07-18T13:49:13Z</time>
      </trkpt>
      <trkpt lat="45.58934" lon="2.76672">
        <ele>894.3</ele>
        <time>2021-07-18T13:49:25Z</time>
      </trkpt>
      <trkpt lat="45.58919" lon="2.76658">
        <ele>894.9</ele>
        <time>2021-07-18T13:49:41Z</time>
      </trkpt>
      <trkpt lat="45.58904" lon="2.7666">
        <ele>896</ele>
        <time>2021-07-18T13:49:55Z</time>
      </trkpt>
      <trkpt lat="45.589" lon="2.76682">
        <ele>896.7</ele>
        <time>2021-07-18T13:50:09Z</time>
      </trkpt>
      <trkpt lat="45.5889" lon="2.76695">
        <ele>898.1</ele>
        <time>2021-07-18T13:50:21Z</time>
      </trkpt>
      <trkpt lat="45.58878" lon="2.76709">
        <ele>900.2</ele>
        <time>2021-07-18T13:50:33Z</time>
      </trkpt>
      <trkpt lat="45.58864" lon="2.76708">
        <ele>901.8</ele>
        <time>2021-07-18T13:50:45Z</time>
      </trkpt>
      <trkpt lat="45.58847" lon="2.76696">
        <ele>902.7</ele>
        <time>2021-07-18T13:51:02Z</time>
      </trkpt>
      <trkpt lat="45.58836" lon="2.76692">
        <ele>903.5</ele>
        <time>2021-07-18T13:51:14Z</time>
      </trkpt>
      <trkpt lat="45.58819" lon="2.7669">
        <ele>904.9</ele>
        <time>2021-07-18T13:51:28Z</time>
      </trkpt>
      <trkpt lat="45.58807" lon="2.76697">
        <ele>906.6</ele>
        <time>2021-07-18T13:51:46Z</time>
      </trkpt>
      <trkpt lat="45.58797" lon="2.76708">
        <ele>908.5</ele>
        <time>2021-07-18T13:52:02Z</time>
      </trkpt>
      <trkpt lat="45.58787" lon="2.76724">
        <ele>910.6</ele>
        <time>2021-07-18T13:52:15Z</time>
      </trkpt>
      <trkpt lat="45.58786" lon="2.76733">
        <ele>911.4</ele>
        <time>2021-07-18T13:52:27Z</time>
      </trkpt>
      <trkpt lat="45.58786" lon="2.76742">
        <ele>912.2</ele>
        <time>2021-07-18T13:52:41Z</time>
      </trkpt>
      <trkpt lat="45.58786" lon="2.76752">
        <ele>913.1</ele>
        <time>2021-07-18T13:52:54Z</time>
      </trkpt>
      <trkpt lat="45.58786" lon="2.76771">
        <ele>915</ele>
        <time>2021-07-18T13:53:09Z</time>
      </trkpt>
      <trkpt lat="45.58784" lon="2.76783">
        <ele>916.4</ele>
        <time>2021-07-18T13:53:20Z</time>
      </trkpt>
      <trkpt lat="45.58777" lon="2.76795">
        <ele>918.4</ele>
        <time>2021-07-18T13:53:36Z</time>
      </trkpt>
      <trkpt lat="45.58771" lon="2.76811">
        <ele>921</ele>
        <time>2021-07-18T13:53:52Z</time>
      </trkpt>
      <trkpt lat="45.58769" lon="2.76826">
        <ele>923.2</ele>
        <time>2021-07-18T13:54:04Z</time>
      </trkpt>
      <trkpt lat="45.58767" lon="2.76841">
        <ele>925.7</ele>
        <time>2021-07-18T13:54:16Z</time>
      </trkpt>
      <trkpt lat="45.58767" lon="2.76858">
        <ele>928.8</ele>
        <time>2021-07-18T13:54:31Z</time>
      </trkpt>
      <trkpt lat="45.58766" lon="2.76871">
        <ele>931.3</ele>
        <time>2021-07-18T13:54:44Z</time>
      </trkpt>
      <trkpt lat="45.58762" lon="2.76888">
        <ele>935.1</ele>
        <time>2021-07-18T13:54:58Z</time>
      </trkpt>
      <trkpt lat="45.58764" lon="2.76907">
        <ele>938.3</ele>
        <time>2021-07-18T13:55:13Z</time>
      </trkpt>
      <trkpt lat="45.58763" lon="2.76927">
        <ele>942.1</ele>
        <time>2021-07-18T13:55:30Z</time>
      </trkpt>
      <trkpt lat="45.58762" lon="2.76938">
        <ele>944.8</ele>
        <time>2021-07-18T13:55:43Z</time>
      </trkpt>
      <trkpt lat="45.58758" lon="2.7696">
        <ele>949.9</ele>
        <time>2021-07-18T13:56:01Z</time>
      </trkpt>
      <trkpt lat="45.58751" lon="2.76972">
        <ele>953.7</ele>
        <time>2021-07-18T13:56:17Z</time>
      </trkpt>
      <trkpt lat="45.5875" lon="2.76979">
        <ele>955.4</ele>
        <time>2021-07-18T13:56:34Z</time>
      </trkpt>
      <trkpt lat="45.58746" lon="2.76979">
        <ele>955.4</ele>
        <time>2021-07-18T13:56:52Z</time>
      </trkpt>
      <trkpt lat="45.58739" lon="2.76986">
        <ele>956.6</ele>
        <time>2021-07-18T13:57:06Z</time>
      </trkpt>
      <trkpt lat="45.58734" lon="2.76993">
        <ele>958.1</ele>
        <time>2021-07-18T13:57:18Z</time>
      </trkpt>
      <trkpt lat="45.58728" lon="2.77003">
        <ele>960.7</ele>
        <time>2021-07-18T13:57:32Z</time>
      </trkpt>
      <trkpt lat="45.58724" lon="2.77013">
        <ele>963.4</ele>
        <time>2021-07-18T13:57:47Z</time>
      </trkpt>
      <trkpt lat="45.58721" lon="2.77022">
        <ele>965.9</ele>
        <time>2021-07-18T13:58:03Z</time>
      </trkpt>
      <trkpt lat="45.58716" lon="2.77031">
        <ele>968.3</ele>
        <time>2021-07-18T13:58:20Z</time>
      </trkpt>
      <trkpt lat="45.58709" lon="2.77037">
        <ele>970.1</ele>
        <time>2021-07-18T13:58:35Z</time>
      </trkpt>
      <trkpt lat="45.58705" lon="2.77047">
        <ele>973</ele>
        <time>2021-07-18T13:58:51Z</time>
      </trkpt>
      <trkpt lat="45.58698" lon="2.77053">
        <ele>974.9</ele>
        <time>2021-07-18T13:59:06Z</time>
      </trkpt>
      <trkpt lat="45.58691" lon="2.7706">
        <ele>977.3</ele>
        <time>2021-07-18T13:59:19Z</time>
      </trkpt>
      <trkpt lat="45.58684" lon="2.77071">
        <ele>980.6</ele>
        <time>2021-07-18T13:59:32Z</time>
      </trkpt>
      <trkpt lat="45.58676" lon="2.77079">
        <ele>983.3</ele>
        <time>2021-07-18T13:59:45Z</time>
      </trkpt>
      <trkpt lat="45.58664" lon="2.77085">
        <ele>985.1</ele>
        <time>2021-07-18T14:00:02Z</time>
      </trkpt>
      <trkpt lat="45.58651" lon="2.77086">
        <ele>984.6</ele>
        <time>2021-07-18T14:00:17Z</time>
      </trkpt>
      <trkpt lat="45.5864" lon="2.77093">
        <ele>985.5</ele>
        <time>2021-07-18T14:00:32Z</time>
      </trkpt>
      <trkpt lat="45.58629" lon="2.77093">
        <ele>985.1</ele>
        <time>2021-07-18T14:00:45Z</time>
      </trkpt>
      <trkpt lat="45.58622" lon="2.77098">
        <ele>986</ele>
        <time>2021-07-18T14:00:55Z</time>
      </trkpt>
      <trkpt lat="45.58622" lon="2.77099">
        <ele>986.3</ele>
        <time>2021-07-18T14:00:57Z</time>
      </trkpt>
      <trkpt lat="45.58616" lon="2.77107">
        <ele>988.1</ele>
        <time>2021-07-18T14:01:09Z</time>
      </trkpt>
      <trkpt lat="45.5861" lon="2.77115">
        <ele>990.2</ele>
        <time>2021-07-18T14:01:25Z</time>
      </trkpt>
      <trkpt lat="45.58607" lon="2.7712">
        <ele>991.8</ele>
        <time>2021-07-18T14:01:39Z</time>
      </trkpt>
      <trkpt lat="45.58605" lon="2.7713">
        <ele>994.5</ele>
        <time>2021-07-18T14:01:53Z</time>
      </trkpt>
      <trkpt lat="45.586" lon="2.77142">
        <ele>998.3</ele>
        <time>2021-07-18T14:02:12Z</time>
      </trkpt>
      <trkpt lat="45.58596" lon="2.77156">
        <ele>1002.7</ele>
        <time>2021-07-18T14:02:28Z</time>
      </trkpt>
      <trkpt lat="45.58592" lon="2.77169">
        <ele>1006.4</ele>
        <time>2021-07-18T14:02:42Z</time>
      </trkpt>
      <trkpt lat="45.58589" lon="2.77181">
        <ele>1009.6</ele>
        <time>2021-07-18T14:02:54Z</time>
      </trkpt>
      <trkpt lat="45.58585" lon="2.77192">
        <ele>1012.4</ele>
        <time>2021-07-18T14:03:07Z</time>
      </trkpt>
      <trkpt lat="45.58579" lon="2.77199">
        <ele>1013.7</ele>
        <time>2021-07-18T14:03:19Z</time>
      </trkpt>
      <trkpt lat="45.58575" lon="2.7721">
        <ele>1016.1</ele>
        <time>2021-07-18T14:03:31Z</time>
      </trkpt>
      <trkpt lat="45.58568" lon="2.77223">
        <ele>1019</ele>
        <time>2021-07-18T14:03:46Z</time>
      </trkpt>
      <trkpt lat="45.58563" lon="2.77239">
        <ele>1022.6</ele>
        <time>2021-07-18T14:04:01Z</time>
      </trkpt>
      <trkpt lat="45.58561" lon="2.77253">
        <ele>1026</ele>
        <time>2021-07-18T14:04:15Z</time>
      </trkpt>
      <trkpt lat="45.58558" lon="2.77265">
        <ele>1028.4</ele>
        <time>2021-07-18T14:04:27Z</time>
      </trkpt>
      <trkpt lat="45.58553" lon="2.77279">
        <ele>1031</ele>
        <time>2021-07-18T14:04:43Z</time>
      </trkpt>
      <trkpt lat="45.58547" lon="2.77289">
        <ele>1033.1</ele>
        <time>2021-07-18T14:04:57Z</time>
      </trkpt>
      <trkpt lat="45.58545" lon="2.77298">
        <ele>1034.9</ele>
        <time>2021-07-18T14:05:10Z</time>
      </trkpt>
      <trkpt lat="45.58543" lon="2.77311">
        <ele>1037.6</ele>
        <time>2021-07-18T14:05:26Z</time>
      </trkpt>
      <trkpt lat="45.58541" lon="2.77316">
        <ele>1038.7</ele>
        <time>2021-07-18T14:05:35Z</time>
      </trkpt>
      <trkpt lat="45.58536" lon="2.77323">
        <ele>1039.9</ele>
        <time>2021-07-18T14:05:50Z</time>
      </trkpt>
      <trkpt lat="45.58535" lon="2.77328">
        <ele>1041</ele>
        <time>2021-07-18T14:06:03Z</time>
      </trkpt>
      <trkpt lat="45.58539" lon="2.77329">
        <ele>1041.5</ele>
        <time>2021-07-18T14:06:18Z</time>
      </trkpt>
      <trkpt lat="45.58546" lon="2.77335">
        <ele>1042.8</ele>
        <time>2021-07-18T14:06:30Z</time>
      </trkpt>
      <trkpt lat="45.5855" lon="2.77338">
        <ele>1043.3</ele>
        <time>2021-07-18T14:06:45Z</time>
      </trkpt>
      <trkpt lat="45.58553" lon="2.7734">
        <ele>1043.6</ele>
        <time>2021-07-18T14:07:04Z</time>
      </trkpt>
      <trkpt lat="45.58557" lon="2.77345">
        <ele>1044.2</ele>
        <time>2021-07-18T14:07:24Z</time>
      </trkpt>
      <trkpt lat="45.58559" lon="2.77352">
        <ele>1044.9</ele>
        <time>2021-07-18T14:07:49Z</time>
      </trkpt>
      <trkpt lat="45.58558" lon="2.77357">
        <ele>1045.3</ele>
        <time>2021-07-18T14:08:14Z</time>
      </trkpt>
      <trkpt lat="45.58554" lon="2.77358">
        <ele>1045.3</ele>
        <time>2021-07-18T14:08:27Z</time>
      </trkpt>
      <trkpt lat="45.5855" lon="2.7736">
        <ele>1045.5</ele>
        <time>2021-07-18T14:08:41Z</time>
      </trkpt>
      <trkpt lat="45.58543" lon="2.77363">
        <ele>1045.7</ele>
        <time>2021-07-18T14:08:54Z</time>
      </trkpt>
      <trkpt lat="45.58534" lon="2.77366">
        <ele>1045.9</ele>
        <time>2021-07-18T14:09:08Z</time>
      </trkpt>
      <trkpt lat="45.58527" lon="2.77365">
        <ele>1045.8</ele>
        <time>2021-07-18T14:09:23Z</time>
      </trkpt>
      <trkpt lat="45.58517" lon="2.77371">
        <ele>1046.5</ele>
        <time>2021-07-18T14:09:38Z</time>
      </trkpt>
      <trkpt lat="45.58511" lon="2.77378">
        <ele>1047.5</ele>
        <time>2021-07-18T14:09:52Z</time>
      </trkpt>
      <trkpt lat="45.58503" lon="2.77386">
        <ele>1048.5</ele>
        <time>2021-07-18T14:10:03Z</time>
      </trkpt>
      <trkpt lat="45.58491" lon="2.77399">
        <ele>1049.5</ele>
        <time>2021-07-18T14:10:17Z</time>
      </trkpt>
      <trkpt lat="45.58477" lon="2.77409">
        <ele>1050</ele>
        <time>2021-07-18T14:10:29Z</time>
      </trkpt>
      <trkpt lat="45.58473" lon="2.77413">
        <ele>1050.4</ele>
        <time>2021-07-18T14:10:41Z</time>
      </trkpt>
      <trkpt lat="45.58466" lon="2.77422">
        <ele>1051</ele>
        <time>2021-07-18T14:11:03Z</time>
      </trkpt>
      <trkpt lat="45.58459" lon="2.7743">
        <ele>1051.2</ele>
        <time>2021-07-18T14:11:17Z</time>
      </trkpt>
      <trkpt lat="45.58455" lon="2.77443">
        <ele>1052.1</ele>
        <time>2021-07-18T14:11:29Z</time>
      </trkpt>
      <trkpt lat="45.58449" lon="2.77457">
        <ele>1053.2</ele>
        <time>2021-07-18T14:11:44Z</time>
      </trkpt>
      <trkpt lat="45.58444" lon="2.77468">
        <ele>1054.4</ele>
        <time>2021-07-18T14:11:54Z</time>
      </trkpt>
      <trkpt lat="45.58438" lon="2.77482">
        <ele>1055.9</ele>
        <time>2021-07-18T14:12:05Z</time>
      </trkpt>
      <trkpt lat="45.58433" lon="2.77493">
        <ele>1057.4</ele>
        <time>2021-07-18T14:12:16Z</time>
      </trkpt>
      <trkpt lat="45.58428" lon="2.77507">
        <ele>1058.5</ele>
        <time>2021-07-18T14:12:28Z</time>
      </trkpt>
      <trkpt lat="45.58427" lon="2.7751">
        <ele>1058.6</ele>
        <time>2021-07-18T14:12:30Z</time>
      </trkpt>
      <trkpt lat="45.58423" lon="2.77524">
        <ele>1059</ele>
        <time>2021-07-18T14:12:42Z</time>
      </trkpt>
      <trkpt lat="45.58419" lon="2.77535">
        <ele>1059.3</ele>
        <time>2021-07-18T14:12:53Z</time>
      </trkpt>
      <trkpt lat="45.58416" lon="2.77543">
        <ele>1059.5</ele>
        <time>2021-07-18T14:13:00Z</time>
      </trkpt>
      <trkpt lat="45.58411" lon="2.77554">
        <ele>1059.5</ele>
        <time>2021-07-18T14:13:10Z</time>
      </trkpt>
      <trkpt lat="45.58405" lon="2.77566">
        <ele>1059.7</ele>
        <time>2021-07-18T14:13:20Z</time>
      </trkpt>
      <trkpt lat="45.58397" lon="2.77581">
        <ele>1060.1</ele>
        <time>2021-07-18T14:13:34Z</time>
      </trkpt>
      <trkpt lat="45.5839" lon="2.77589">
        <ele>1060.4</ele>
        <time>2021-07-18T14:13:42Z</time>
      </trkpt>
      <trkpt lat="45.58382" lon="2.77604">
        <ele>1060.9</ele>
        <time>2021-07-18T14:13:54Z</time>
      </trkpt>
      <trkpt lat="45.58373" lon="2.7762">
        <ele>1061.4</ele>
        <time>2021-07-18T14:14:07Z</time>
      </trkpt>
      <trkpt lat="45.58368" lon="2.77634">
        <ele>1061.9</ele>
        <time>2021-07-18T14:14:17Z</time>
      </trkpt>
      <trkpt lat="45.58363" lon="2.77649">
        <ele>1062.4</ele>
        <time>2021-07-18T14:14:29Z</time>
      </trkpt>
      <trkpt lat="45.58362" lon="2.77653">
        <ele>1062.6</ele>
        <time>2021-07-18T14:14:32Z</time>
      </trkpt>
      <trkpt lat="45.58358" lon="2.77658">
        <ele>1062.8</ele>
        <time>2021-07-18T14:14:36Z</time>
      </trkpt>
      <trkpt lat="45.58353" lon="2.7767">
        <ele>1063.4</ele>
        <time>2021-07-18T14:14:47Z</time>
      </trkpt>
      <trkpt lat="45.58347" lon="2.77686">
        <ele>1064</ele>
        <time>2021-07-18T14:14:57Z</time>
      </trkpt>
      <trkpt lat="45.58346" lon="2.77689">
        <ele>1064.1</ele>
        <time>2021-07-18T14:14:59Z</time>
      </trkpt>
      <trkpt lat="45.58344" lon="2.77693">
        <ele>1064.3</ele>
        <time>2021-07-18T14:15:02Z</time>
      </trkpt>
      <trkpt lat="45.58339" lon="2.77711">
        <ele>1064.9</ele>
        <time>2021-07-18T14:15:13Z</time>
      </trkpt>
      <trkpt lat="45.58334" lon="2.77736">
        <ele>1065.6</ele>
        <time>2021-07-18T14:15:29Z</time>
      </trkpt>
      <trkpt lat="45.58332" lon="2.77752">
        <ele>1066.1</ele>
        <time>2021-07-18T14:15:40Z</time>
      </trkpt>
      <trkpt lat="45.58326" lon="2.77773">
        <ele>1067.2</ele>
        <time>2021-07-18T14:15:54Z</time>
      </trkpt>
      <trkpt lat="45.58321" lon="2.77792">
        <ele>1068.3</ele>
        <time>2021-07-18T14:16:06Z</time>
      </trkpt>
      <trkpt lat="45.58316" lon="2.77814">
        <ele>1069.7</ele>
        <time>2021-07-18T14:16:21Z</time>
      </trkpt>
      <trkpt lat="45.58311" lon="2.77827">
        <ele>1070.7</ele>
        <time>2021-07-18T14:16:31Z</time>
      </trkpt>
      <trkpt lat="45.58306" lon="2.77841">
        <ele>1071.8</ele>
        <time>2021-07-18T14:16:42Z</time>
      </trkpt>
      <trkpt lat="45.58299" lon="2.77859">
        <ele>1073.3</ele>
        <time>2021-07-18T14:16:55Z</time>
      </trkpt>
      <trkpt lat="45.58292" lon="2.77872">
        <ele>1074.7</ele>
        <time>2021-07-18T14:17:08Z</time>
      </trkpt>
      <trkpt lat="45.58286" lon="2.77885">
        <ele>1076.4</ele>
        <time>2021-07-18T14:17:21Z</time>
      </trkpt>
      <trkpt lat="45.58285" lon="2.77888">
        <ele>1076.7</ele>
        <time>2021-07-18T14:17:24Z</time>
      </trkpt>
      <trkpt lat="45.58282" lon="2.77899">
        <ele>1078</ele>
        <time>2021-07-18T14:17:40Z</time>
      </trkpt>
      <trkpt lat="45.58283" lon="2.77901">
        <ele>1078</ele>
        <time>2021-07-18T14:17:55Z</time>
      </trkpt>
      <trkpt lat="45.58281" lon="2.77904">
        <ele>1078.4</ele>
        <time>2021-07-18T14:18:07Z</time>
      </trkpt>
      <trkpt lat="45.58281" lon="2.77906">
        <ele>1078.6</ele>
        <time>2021-07-18T14:18:25Z</time>
      </trkpt>
      <trkpt lat="45.58282" lon="2.77915">
        <ele>1079.3</ele>
        <time>2021-07-18T14:18:39Z</time>
      </trkpt>
      <trkpt lat="45.58281" lon="2.77913">
        <ele>1079.3</ele>
        <time>2021-07-18T14:19:07Z</time>
      </trkpt>
      <trkpt lat="45.58283" lon="2.77915">
        <ele>1079.2</ele>
        <time>2021-07-18T14:19:19Z</time>
      </trkpt>
      <trkpt lat="45.58284" lon="2.77924">
        <ele>1079.5</ele>
        <time>2021-07-18T14:19:37Z</time>
      </trkpt>
      <trkpt lat="45.58286" lon="2.77931">
        <ele>1079.6</ele>
        <time>2021-07-18T14:19:43Z</time>
      </trkpt>
      <trkpt lat="45.58288" lon="2.77937">
        <ele>1079.6</ele>
        <time>2021-07-18T14:19:57Z</time>
      </trkpt>
      <trkpt lat="45.5829" lon="2.77946">
        <ele>1079.8</ele>
        <time>2021-07-18T14:20:21Z</time>
      </trkpt>
      <trkpt lat="45.58288" lon="2.77946">
        <ele>1080.1</ele>
        <time>2021-07-18T14:20:49Z</time>
      </trkpt>
      <trkpt lat="45.58288" lon="2.77946">
        <ele>1080.2</ele>
        <time>2021-07-18T14:21:12Z</time>
      </trkpt>
      <trkpt lat="45.58291" lon="2.77954">
        <ele>1080.1</ele>
        <time>2021-07-18T14:21:24Z</time>
      </trkpt>
      <trkpt lat="45.58294" lon="2.77962">
        <ele>1080.1</ele>
        <time>2021-07-18T14:21:32Z</time>
      </trkpt>
      <trkpt lat="45.58307" lon="2.77977">
        <ele>1078.4</ele>
        <time>2021-07-18T14:21:45Z</time>
      </trkpt>
      <trkpt lat="45.58315" lon="2.77986">
        <ele>1077.1</ele>
        <time>2021-07-18T14:21:56Z</time>
      </trkpt>
      <trkpt lat="45.5832" lon="2.77992">
        <ele>1076.4</ele>
        <time>2021-07-18T14:22:06Z</time>
      </trkpt>
      <trkpt lat="45.58322" lon="2.78">
        <ele>1076.2</ele>
        <time>2021-07-18T14:22:14Z</time>
      </trkpt>
      <trkpt lat="45.58327" lon="2.78017">
        <ele>1076.8</ele>
        <time>2021-07-18T14:22:27Z</time>
      </trkpt>
      <trkpt lat="45.58335" lon="2.78033">
        <ele>1076.9</ele>
        <time>2021-07-18T14:22:43Z</time>
      </trkpt>
      <trkpt lat="45.58342" lon="2.78036">
        <ele>1076.1</ele>
        <time>2021-07-18T14:22:55Z</time>
      </trkpt>
      <trkpt lat="45.58352" lon="2.78042">
        <ele>1075.3</ele>
        <time>2021-07-18T14:23:07Z</time>
      </trkpt>
      <trkpt lat="45.58359" lon="2.78043">
        <ele>1074.2</ele>
        <time>2021-07-18T14:23:18Z</time>
      </trkpt>
      <trkpt lat="45.58369" lon="2.78048">
        <ele>1073.1</ele>
        <time>2021-07-18T14:23:31Z</time>
      </trkpt>
      <trkpt lat="45.58376" lon="2.78049">
        <ele>1072.1</ele>
        <time>2021-07-18T14:23:45Z</time>
      </trkpt>
      <trkpt lat="45.58385" lon="2.7805">
        <ele>1070.8</ele>
        <time>2021-07-18T14:24:00Z</time>
      </trkpt>
      <trkpt lat="45.58394" lon="2.78049">
        <ele>1069.3</ele>
        <time>2021-07-18T14:24:16Z</time>
      </trkpt>
      <trkpt lat="45.58405" lon="2.78047">
        <ele>1067.5</ele>
        <time>2021-07-18T14:24:35Z</time>
      </trkpt>
      <trkpt lat="45.58416" lon="2.78054">
        <ele>1066</ele>
        <time>2021-07-18T14:24:51Z</time>
      </trkpt>
      <trkpt lat="45.58425" lon="2.78065">
        <ele>1064</ele>
        <time>2021-07-18T14:25:08Z</time>
      </trkpt>
      <trkpt lat="45.58435" lon="2.78076">
        <ele>1061.5</ele>
        <time>2021-07-18T14:25:25Z</time>
      </trkpt>
      <trkpt lat="45.58441" lon="2.78087">
        <ele>1059.6</ele>
        <time>2021-07-18T14:25:41Z</time>
      </trkpt>
      <trkpt lat="45.5845" lon="2.78102">
        <ele>1057.2</ele>
        <time>2021-07-18T14:25:56Z</time>
      </trkpt>
      <trkpt lat="45.58453" lon="2.78117">
        <ele>1056.3</ele>
        <time>2021-07-18T14:26:10Z</time>
      </trkpt>
      <trkpt lat="45.58458" lon="2.78131">
        <ele>1054.8</ele>
        <time>2021-07-18T14:26:23Z</time>
      </trkpt>
      <trkpt lat="45.58464" lon="2.78145">
        <ele>1052.3</ele>
        <time>2021-07-18T14:26:39Z</time>
      </trkpt>
      <trkpt lat="45.58466" lon="2.78149">
        <ele>1051.8</ele>
        <time>2021-07-18T14:26:45Z</time>
      </trkpt>
      <trkpt lat="45.58472" lon="2.78163">
        <ele>1049.3</ele>
        <time>2021-07-18T14:27:03Z</time>
      </trkpt>
      <trkpt lat="45.5848" lon="2.78177">
        <ele>1045.8</ele>
        <time>2021-07-18T14:27:17Z</time>
      </trkpt>
      <trkpt lat="45.58484" lon="2.78195">
        <ele>1043.7</ele>
        <time>2021-07-18T14:27:31Z</time>
      </trkpt>
      <trkpt lat="45.58486" lon="2.78215">
        <ele>1042.1</ele>
        <time>2021-07-18T14:27:47Z</time>
      </trkpt>
      <trkpt lat="45.58486" lon="2.78229">
        <ele>1041.3</ele>
        <time>2021-07-18T14:28:01Z</time>
      </trkpt>
      <trkpt lat="45.58488" lon="2.78248">
        <ele>1039.5</ele>
        <time>2021-07-18T14:28:15Z</time>
      </trkpt>
      <trkpt lat="45.58487" lon="2.78252">
        <ele>1039.5</ele>
        <time>2021-07-18T14:28:18Z</time>
      </trkpt>
      <trkpt lat="45.58488" lon="2.78279">
        <ele>1035.4</ele>
        <time>2021-07-18T14:28:36Z</time>
      </trkpt>
      <trkpt lat="45.58484" lon="2.78299">
        <ele>1033.7</ele>
        <time>2021-07-18T14:28:50Z</time>
      </trkpt>
      <trkpt lat="45.58478" lon="2.78311">
        <ele>1034</ele>
        <time>2021-07-18T14:29:07Z</time>
      </trkpt>
      <trkpt lat="45.58479" lon="2.7832">
        <ele>1032.3</ele>
        <time>2021-07-18T14:29:20Z</time>
      </trkpt>
      <trkpt lat="45.58477" lon="2.78328">
        <ele>1031.9</ele>
        <time>2021-07-18T14:29:34Z</time>
      </trkpt>
      <trkpt lat="45.58472" lon="2.78337">
        <ele>1032</ele>
        <time>2021-07-18T14:29:46Z</time>
      </trkpt>
      <trkpt lat="45.58467" lon="2.78347">
        <ele>1031.5</ele>
        <time>2021-07-18T14:29:55Z</time>
      </trkpt>
      <trkpt lat="45.5846" lon="2.78373">
        <ele>1028.1</ele>
        <time>2021-07-18T14:30:13Z</time>
      </trkpt>
      <trkpt lat="45.58457" lon="2.78384">
        <ele>1026.6</ele>
        <time>2021-07-18T14:30:27Z</time>
      </trkpt>
      <trkpt lat="45.58451" lon="2.784">
        <ele>1024.6</ele>
        <time>2021-07-18T14:30:40Z</time>
      </trkpt>
      <trkpt lat="45.58447" lon="2.78416">
        <ele>1021.7</ele>
        <time>2021-07-18T14:30:54Z</time>
      </trkpt>
      <trkpt lat="45.58437" lon="2.78433">
        <ele>1022</ele>
        <time>2021-07-18T14:31:09Z</time>
      </trkpt>
      <trkpt lat="45.58432" lon="2.78446">
        <ele>1021.8</ele>
        <time>2021-07-18T14:31:22Z</time>
      </trkpt>
      <trkpt lat="45.58429" lon="2.78456">
        <ele>1021.5</ele>
        <time>2021-07-18T14:31:31Z</time>
      </trkpt>
      <trkpt lat="45.58426" lon="2.78478">
        <ele>1020.1</ele>
        <time>2021-07-18T14:31:44Z</time>
      </trkpt>
      <trkpt lat="45.58427" lon="2.78481">
        <ele>1019.7</ele>
        <time>2021-07-18T14:31:46Z</time>
      </trkpt>
      <trkpt lat="45.58436" lon="2.78492">
        <ele>1016.7</ele>
        <time>2021-07-18T14:31:57Z</time>
      </trkpt>
      <trkpt lat="45.58442" lon="2.78498">
        <ele>1014.7</ele>
        <time>2021-07-18T14:32:07Z</time>
      </trkpt>
      <trkpt lat="45.58448" lon="2.78512">
        <ele>1013.6</ele>
        <time>2021-07-18T14:32:20Z</time>
      </trkpt>
      <trkpt lat="45.58453" lon="2.78524">
        <ele>1013</ele>
        <time>2021-07-18T14:32:34Z</time>
      </trkpt>
      <trkpt lat="45.58464" lon="2.78527">
        <ele>1010.6</ele>
        <time>2021-07-18T14:32:48Z</time>
      </trkpt>
      <trkpt lat="45.58471" lon="2.78533">
        <ele>1009.3</ele>
        <time>2021-07-18T14:32:58Z</time>
      </trkpt>
      <trkpt lat="45.5848" lon="2.78543">
        <ele>1007.5</ele>
        <time>2021-07-18T14:33:12Z</time>
      </trkpt>
      <trkpt lat="45.58486" lon="2.7856">
        <ele>1006.8</ele>
        <time>2021-07-18T14:33:25Z</time>
      </trkpt>
      <trkpt lat="45.58492" lon="2.78575">
        <ele>1005.7</ele>
        <time>2021-07-18T14:33:39Z</time>
      </trkpt>
      <trkpt lat="45.58501" lon="2.78586">
        <ele>1003.5</ele>
        <time>2021-07-18T14:33:54Z</time>
      </trkpt>
      <trkpt lat="45.58509" lon="2.78597">
        <ele>1000.8</ele>
        <time>2021-07-18T14:34:05Z</time>
      </trkpt>
      <trkpt lat="45.58511" lon="2.786">
        <ele>1000</ele>
        <time>2021-07-18T14:34:08Z</time>
      </trkpt>
      <trkpt lat="45.58514" lon="2.78602">
        <ele>999.1</ele>
        <time>2021-07-18T14:34:12Z</time>
      </trkpt>
      <trkpt lat="45.5852" lon="2.78606">
        <ele>997.1</ele>
        <time>2021-07-18T14:34:21Z</time>
      </trkpt>
      <trkpt lat="45.58528" lon="2.78607">
        <ele>994.2</ele>
        <time>2021-07-18T14:34:31Z</time>
      </trkpt>
      <trkpt lat="45.58535" lon="2.78598">
        <ele>991.4</ele>
        <time>2021-07-18T14:34:46Z</time>
      </trkpt>
      <trkpt lat="45.58541" lon="2.78581">
        <ele>988.2</ele>
        <time>2021-07-18T14:35:01Z</time>
      </trkpt>
      <trkpt lat="45.58548" lon="2.78571">
        <ele>985.5</ele>
        <time>2021-07-18T14:35:15Z</time>
      </trkpt>
      <trkpt lat="45.58557" lon="2.78554">
        <ele>981.6</ele>
        <time>2021-07-18T14:35:28Z</time>
      </trkpt>
      <trkpt lat="45.58563" lon="2.78539">
        <ele>979.1</ele>
        <time>2021-07-18T14:35:38Z</time>
      </trkpt>
      <trkpt lat="45.58576" lon="2.78533">
        <ele>974</ele>
        <time>2021-07-18T14:35:54Z</time>
      </trkpt>
      <trkpt lat="45.58587" lon="2.7853">
        <ele>970.6</ele>
        <time>2021-07-18T14:36:04Z</time>
      </trkpt>
      <trkpt lat="45.58589" lon="2.78529">
        <ele>970.3</ele>
        <time>2021-07-18T14:36:05Z</time>
      </trkpt>
      <trkpt lat="45.58605" lon="2.7852">
        <ele>966.8</ele>
        <time>2021-07-18T14:36:19Z</time>
      </trkpt>
      <trkpt lat="45.58608" lon="2.78527">
        <ele>966.5</ele>
        <time>2021-07-18T14:36:30Z</time>
      </trkpt>
      <trkpt lat="45.58608" lon="2.78535">
        <ele>966.7</ele>
        <time>2021-07-18T14:36:39Z</time>
      </trkpt>
      <trkpt lat="45.58614" lon="2.7854">
        <ele>965.7</ele>
        <time>2021-07-18T14:36:52Z</time>
      </trkpt>
      <trkpt lat="45.58611" lon="2.78546">
        <ele>966.5</ele>
        <time>2021-07-18T14:37:07Z</time>
      </trkpt>
      <trkpt lat="45.58607" lon="2.78548">
        <ele>967.2</ele>
        <time>2021-07-18T14:37:25Z</time>
      </trkpt>
      <trkpt lat="45.58606" lon="2.78551">
        <ele>967.6</ele>
        <time>2021-07-18T14:37:41Z</time>
      </trkpt>
      <trkpt lat="45.58604" lon="2.78552">
        <ele>967.9</ele>
        <time>2021-07-18T14:37:58Z</time>
      </trkpt>
      <trkpt lat="45.58604" lon="2.78553">
        <ele>967.9</ele>
        <time>2021-07-18T14:38:12Z</time>
      </trkpt>
      <trkpt lat="45.58604" lon="2.78554">
        <ele>967.9</ele>
        <time>2021-07-18T14:38:27Z</time>
      </trkpt>
      <trkpt lat="45.58607" lon="2.78574">
        <ele>968.1</ele>
        <time>2021-07-18T14:38:44Z</time>
      </trkpt>
      <trkpt lat="45.58607" lon="2.78584">
        <ele>968.3</ele>
        <time>2021-07-18T14:38:51Z</time>
      </trkpt>
      <trkpt lat="45.58608" lon="2.78612">
        <ele>970.5</ele>
        <time>2021-07-18T14:39:10Z</time>
      </trkpt>
      <trkpt lat="45.58612" lon="2.78648">
        <ele>973</ele>
        <time>2021-07-18T14:39:32Z</time>
      </trkpt>
      <trkpt lat="45.58611" lon="2.78649">
        <ele>973.1</ele>
        <time>2021-07-18T14:39:33Z</time>
      </trkpt>
      <trkpt lat="45.58612" lon="2.78672">
        <ele>974.4</ele>
        <time>2021-07-18T14:39:47Z</time>
      </trkpt>
      <trkpt lat="45.58612" lon="2.78679">
        <ele>974.6</ele>
        <time>2021-07-18T14:39:51Z</time>
      </trkpt>
      <trkpt lat="45.58613" lon="2.78686">
        <ele>974.5</ele>
        <time>2021-07-18T14:39:55Z</time>
      </trkpt>
      <trkpt lat="45.58615" lon="2.787">
        <ele>974.1</ele>
        <time>2021-07-18T14:40:01Z</time>
      </trkpt>
      <trkpt lat="45.58615" lon="2.78708">
        <ele>974.3</ele>
        <time>2021-07-18T14:40:05Z</time>
      </trkpt>
      <trkpt lat="45.58615" lon="2.78713">
        <ele>974.4</ele>
        <time>2021-07-18T14:40:08Z</time>
      </trkpt>
      <trkpt lat="45.58614" lon="2.7872">
        <ele>974.8</ele>
        <time>2021-07-18T14:40:12Z</time>
      </trkpt>
      <trkpt lat="45.58613" lon="2.78737">
        <ele>975.3</ele>
        <time>2021-07-18T14:40:22Z</time>
      </trkpt>
      <trkpt lat="45.58609" lon="2.78755">
        <ele>976.5</ele>
        <time>2021-07-18T14:40:32Z</time>
      </trkpt>
      <trkpt lat="45.58607" lon="2.78759">
        <ele>976.9</ele>
        <time>2021-07-18T14:40:35Z</time>
      </trkpt>
      <trkpt lat="45.58606" lon="2.78764">
        <ele>977.2</ele>
        <time>2021-07-18T14:40:38Z</time>
      </trkpt>
      <trkpt lat="45.58605" lon="2.78769">
        <ele>977.1</ele>
        <time>2021-07-18T14:40:41Z</time>
      </trkpt>
      <trkpt lat="45.58604" lon="2.78773">
        <ele>977.3</ele>
        <time>2021-07-18T14:40:44Z</time>
      </trkpt>
      <trkpt lat="45.58598" lon="2.78797">
        <ele>978.6</ele>
        <time>2021-07-18T14:40:58Z</time>
      </trkpt>
      <trkpt lat="45.58596" lon="2.78808">
        <ele>978.6</ele>
        <time>2021-07-18T14:41:03Z</time>
      </trkpt>
      <trkpt lat="45.58593" lon="2.78816">
        <ele>979.5</ele>
        <time>2021-07-18T14:41:08Z</time>
      </trkpt>
      <trkpt lat="45.58588" lon="2.78831">
        <ele>980.5</ele>
        <time>2021-07-18T14:41:17Z</time>
      </trkpt>
      <trkpt lat="45.58587" lon="2.78842">
        <ele>980.5</ele>
        <time>2021-07-18T14:41:23Z</time>
      </trkpt>
      <trkpt lat="45.58585" lon="2.78848">
        <ele>981.3</ele>
        <time>2021-07-18T14:41:27Z</time>
      </trkpt>
      <trkpt lat="45.58581" lon="2.78858">
        <ele>982.3</ele>
        <time>2021-07-18T14:41:33Z</time>
      </trkpt>
      <trkpt lat="45.58577" lon="2.78871">
        <ele>983.3</ele>
        <time>2021-07-18T14:41:40Z</time>
      </trkpt>
      <trkpt lat="45.5858" lon="2.78891">
        <ele>981.8</ele>
        <time>2021-07-18T14:41:52Z</time>
      </trkpt>
      <trkpt lat="45.58581" lon="2.78906">
        <ele>981.1</ele>
        <time>2021-07-18T14:41:59Z</time>
      </trkpt>
      <trkpt lat="45.58581" lon="2.78909">
        <ele>981</ele>
        <time>2021-07-18T14:42:01Z</time>
      </trkpt>
      <trkpt lat="45.58586" lon="2.78933">
        <ele>980.3</ele>
        <time>2021-07-18T14:42:11Z</time>
      </trkpt>
      <trkpt lat="45.58586" lon="2.78935">
        <ele>980.2</ele>
        <time>2021-07-18T14:42:12Z</time>
      </trkpt>
      <trkpt lat="45.58587" lon="2.78937">
        <ele>980.3</ele>
        <time>2021-07-18T14:42:14Z</time>
      </trkpt>
      <trkpt lat="45.58587" lon="2.78939">
        <ele>980.2</ele>
        <time>2021-07-18T14:42:15Z</time>
      </trkpt>
      <trkpt lat="45.58588" lon="2.78941">
        <ele>980.2</ele>
        <time>2021-07-18T14:42:16Z</time>
      </trkpt>
      <trkpt lat="45.5859" lon="2.78952">
        <ele>980.3</ele>
        <time>2021-07-18T14:42:22Z</time>
      </trkpt>
      <trkpt lat="45.5859" lon="2.78967">
        <ele>981</ele>
        <time>2021-07-18T14:42:31Z</time>
      </trkpt>
      <trkpt lat="45.58596" lon="2.78985">
        <ele>980.4</ele>
        <time>2021-07-18T14:42:41Z</time>
      </trkpt>
      <trkpt lat="45.58598" lon="2.7899">
        <ele>980.2</ele>
        <time>2021-07-18T14:42:44Z</time>
      </trkpt>
      <trkpt lat="45.586" lon="2.79002">
        <ele>980.6</ele>
        <time>2021-07-18T14:42:51Z</time>
      </trkpt>
      <trkpt lat="45.586" lon="2.7901">
        <ele>981.3</ele>
        <time>2021-07-18T14:42:56Z</time>
      </trkpt>
      <trkpt lat="45.58598" lon="2.79015">
        <ele>982.1</ele>
        <time>2021-07-18T14:43:04Z</time>
      </trkpt>
      <trkpt lat="45.58601" lon="2.79036">
        <ele>982.9</ele>
        <time>2021-07-18T14:43:20Z</time>
      </trkpt>
      <trkpt lat="45.58602" lon="2.79055">
        <ele>984.2</ele>
        <time>2021-07-18T14:43:36Z</time>
      </trkpt>
      <trkpt lat="45.58602" lon="2.7907">
        <ele>985.3</ele>
        <time>2021-07-18T14:43:50Z</time>
      </trkpt>
      <trkpt lat="45.58599" lon="2.79087">
        <ele>987.9</ele>
        <time>2021-07-18T14:44:04Z</time>
      </trkpt>
      <trkpt lat="45.58599" lon="2.79105">
        <ele>989.8</ele>
        <time>2021-07-18T14:44:21Z</time>
      </trkpt>
      <trkpt lat="45.58602" lon="2.79129">
        <ele>991.7</ele>
        <time>2021-07-18T14:44:33Z</time>
      </trkpt>
      <trkpt lat="45.58603" lon="2.79143">
        <ele>993.1</ele>
        <time>2021-07-18T14:44:43Z</time>
      </trkpt>
      <trkpt lat="45.58606" lon="2.79158">
        <ele>994.1</ele>
        <time>2021-07-18T14:44:54Z</time>
      </trkpt>
      <trkpt lat="45.58609" lon="2.79174">
        <ele>994.3</ele>
        <time>2021-07-18T14:45:08Z</time>
      </trkpt>
      <trkpt lat="45.58611" lon="2.79178">
        <ele>993.9</ele>
        <time>2021-07-18T14:45:12Z</time>
      </trkpt>
      <trkpt lat="45.58615" lon="2.79185">
        <ele>993</ele>
        <time>2021-07-18T14:45:19Z</time>
      </trkpt>
      <trkpt lat="45.58617" lon="2.79191">
        <ele>992.7</ele>
        <time>2021-07-18T14:45:24Z</time>
      </trkpt>
      <trkpt lat="45.5862" lon="2.79204">
        <ele>992.4</ele>
        <time>2021-07-18T14:45:34Z</time>
      </trkpt>
      <trkpt lat="45.58618" lon="2.79218">
        <ele>993.6</ele>
        <time>2021-07-18T14:45:45Z</time>
      </trkpt>
      <trkpt lat="45.58615" lon="2.79227">
        <ele>994.8</ele>
        <time>2021-07-18T14:45:56Z</time>
      </trkpt>
      <trkpt lat="45.58615" lon="2.79242">
        <ele>995.5</ele>
        <time>2021-07-18T14:46:10Z</time>
      </trkpt>
      <trkpt lat="45.58617" lon="2.7925">
        <ele>995.3</ele>
        <time>2021-07-18T14:46:18Z</time>
      </trkpt>
      <trkpt lat="45.5862" lon="2.79253">
        <ele>994.3</ele>
        <time>2021-07-18T14:46:21Z</time>
      </trkpt>
      <trkpt lat="45.58627" lon="2.79261">
        <ele>991.5</ele>
        <time>2021-07-18T14:46:32Z</time>
      </trkpt>
      <trkpt lat="45.58634" lon="2.79273">
        <ele>988.3</ele>
        <time>2021-07-18T14:46:43Z</time>
      </trkpt>
      <trkpt lat="45.58639" lon="2.79284">
        <ele>986.4</ele>
        <time>2021-07-18T14:46:53Z</time>
      </trkpt>
      <trkpt lat="45.58637" lon="2.79301">
        <ele>986.2</ele>
        <time>2021-07-18T14:47:05Z</time>
      </trkpt>
      <trkpt lat="45.58638" lon="2.79307">
        <ele>985.8</ele>
        <time>2021-07-18T14:47:08Z</time>
      </trkpt>
      <trkpt lat="45.5864" lon="2.79319">
        <ele>984.6</ele>
        <time>2021-07-18T14:47:18Z</time>
      </trkpt>
      <trkpt lat="45.58646" lon="2.79333">
        <ele>981.9</ele>
        <time>2021-07-18T14:47:31Z</time>
      </trkpt>
      <trkpt lat="45.58651" lon="2.79347">
        <ele>979.8</ele>
        <time>2021-07-18T14:47:41Z</time>
      </trkpt>
      <trkpt lat="45.58651" lon="2.79355">
        <ele>979.6</ele>
        <time>2021-07-18T14:47:46Z</time>
      </trkpt>
      <trkpt lat="45.5865" lon="2.79365">
        <ele>979.6</ele>
        <time>2021-07-18T14:47:51Z</time>
      </trkpt>
      <trkpt lat="45.58653" lon="2.79379">
        <ele>978.3</ele>
        <time>2021-07-18T14:48:02Z</time>
      </trkpt>
      <trkpt lat="45.58655" lon="2.79388">
        <ele>977.3</ele>
        <time>2021-07-18T14:48:08Z</time>
      </trkpt>
      <trkpt lat="45.58655" lon="2.79402">
        <ele>976.7</ele>
        <time>2021-07-18T14:48:16Z</time>
      </trkpt>
      <trkpt lat="45.58664" lon="2.79423">
        <ele>972.8</ele>
        <time>2021-07-18T14:48:31Z</time>
      </trkpt>
      <trkpt lat="45.58672" lon="2.7943">
        <ele>971.7</ele>
        <time>2021-07-18T14:48:41Z</time>
      </trkpt>
      <trkpt lat="45.58673" lon="2.79431">
        <ele>971.7</ele>
        <time>2021-07-18T14:48:57Z</time>
      </trkpt>
      <trkpt lat="45.58673" lon="2.79429">
        <ele>971.7</ele>
        <time>2021-07-18T14:49:00Z</time>
      </trkpt>
      <trkpt lat="45.58677" lon="2.79427">
        <ele>971.8</ele>
        <time>2021-07-18T14:49:12Z</time>
      </trkpt>
      <trkpt lat="45.58679" lon="2.79422">
        <ele>971.9</ele>
        <time>2021-07-18T14:49:21Z</time>
      </trkpt>
      <trkpt lat="45.58688" lon="2.79407">
        <ele>972.3</ele>
        <time>2021-07-18T14:49:33Z</time>
      </trkpt>
      <trkpt lat="45.58694" lon="2.79397">
        <ele>972.5</ele>
        <time>2021-07-18T14:49:44Z</time>
      </trkpt>
      <trkpt lat="45.58698" lon="2.79386">
        <ele>972.7</ele>
        <time>2021-07-18T14:49:56Z</time>
      </trkpt>
      <trkpt lat="45.58701" lon="2.79367">
        <ele>973.1</ele>
        <time>2021-07-18T14:50:09Z</time>
      </trkpt>
      <trkpt lat="45.58701" lon="2.79358">
        <ele>973.3</ele>
        <time>2021-07-18T14:50:15Z</time>
      </trkpt>
      <trkpt lat="45.58698" lon="2.7934">
        <ele>973.7</ele>
        <time>2021-07-18T14:50:26Z</time>
      </trkpt>
      <trkpt lat="45.58698" lon="2.79322">
        <ele>974</ele>
        <time>2021-07-18T14:50:37Z</time>
      </trkpt>
      <trkpt lat="45.587" lon="2.79301">
        <ele>974.2</ele>
        <time>2021-07-18T14:50:50Z</time>
      </trkpt>
      <trkpt lat="45.58703" lon="2.79286">
        <ele>974.2</ele>
        <time>2021-07-18T14:51:01Z</time>
      </trkpt>
      <trkpt lat="45.58705" lon="2.79276">
        <ele>974.1</ele>
        <time>2021-07-18T14:51:15Z</time>
      </trkpt>
      <trkpt lat="45.58711" lon="2.79278">
        <ele>973.6</ele>
        <time>2021-07-18T14:51:39Z</time>
      </trkpt>
      <trkpt lat="45.5871" lon="2.79276">
        <ele>973.7</ele>
        <time>2021-07-18T14:51:56Z</time>
      </trkpt>
      <trkpt lat="45.58711" lon="2.79269">
        <ele>973.6</ele>
        <time>2021-07-18T14:52:10Z</time>
      </trkpt>
      <trkpt lat="45.58715" lon="2.79256">
        <ele>973.4</ele>
        <time>2021-07-18T14:52:26Z</time>
      </trkpt>
      <trkpt lat="45.58718" lon="2.79241">
        <ele>972.9</ele>
        <time>2021-07-18T14:52:39Z</time>
      </trkpt>
      <trkpt lat="45.58727" lon="2.79219">
        <ele>971.4</ele>
        <time>2021-07-18T14:52:54Z</time>
      </trkpt>
      <trkpt lat="45.58733" lon="2.79201">
        <ele>970.5</ele>
        <time>2021-07-18T14:53:07Z</time>
      </trkpt>
      <trkpt lat="45.5874" lon="2.79185">
        <ele>969.4</ele>
        <time>2021-07-18T14:53:21Z</time>
      </trkpt>
      <trkpt lat="45.58741" lon="2.79172">
        <ele>969</ele>
        <time>2021-07-18T14:53:35Z</time>
      </trkpt>
      <trkpt lat="45.58742" lon="2.79156">
        <ele>967.9</ele>
        <time>2021-07-18T14:53:48Z</time>
      </trkpt>
      <trkpt lat="45.58738" lon="2.79137">
        <ele>966.9</ele>
        <time>2021-07-18T14:54:01Z</time>
      </trkpt>
      <trkpt lat="45.58737" lon="2.79129">
        <ele>966.3</ele>
        <time>2021-07-18T14:54:14Z</time>
      </trkpt>
      <trkpt lat="45.58739" lon="2.79122">
        <ele>965.6</ele>
        <time>2021-07-18T14:54:27Z</time>
      </trkpt>
      <trkpt lat="45.58738" lon="2.79115">
        <ele>965.1</ele>
        <time>2021-07-18T14:54:39Z</time>
      </trkpt>
      <trkpt lat="45.58736" lon="2.79103">
        <ele>964.4</ele>
        <time>2021-07-18T14:54:53Z</time>
      </trkpt>
      <trkpt lat="45.58736" lon="2.79077">
        <ele>962.7</ele>
        <time>2021-07-18T14:55:10Z</time>
      </trkpt>
      <trkpt lat="45.5873" lon="2.79057">
        <ele>962.6</ele>
        <time>2021-07-18T14:55:26Z</time>
      </trkpt>
      <trkpt lat="45.5872" lon="2.79042">
        <ele>962.6</ele>
        <time>2021-07-18T14:55:39Z</time>
      </trkpt>
      <trkpt lat="45.58708" lon="2.79027">
        <ele>962.5</ele>
        <time>2021-07-18T14:55:54Z</time>
      </trkpt>
      <trkpt lat="45.58707" lon="2.79023">
        <ele>962.4</ele>
        <time>2021-07-18T14:56:00Z</time>
      </trkpt>
      <trkpt lat="45.58703" lon="2.79012">
        <ele>962</ele>
        <time>2021-07-18T14:56:16Z</time>
      </trkpt>
      <trkpt lat="45.58702" lon="2.79002">
        <ele>961.7</ele>
        <time>2021-07-18T14:56:41Z</time>
      </trkpt>
      <trkpt lat="45.58699" lon="2.78988">
        <ele>960.7</ele>
        <time>2021-07-18T14:56:57Z</time>
      </trkpt>
      <trkpt lat="45.58698" lon="2.78973">
        <ele>959.6</ele>
        <time>2021-07-18T14:57:11Z</time>
      </trkpt>
      <trkpt lat="45.58699" lon="2.78956">
        <ele>958.3</ele>
        <time>2021-07-18T14:57:25Z</time>
      </trkpt>
      <trkpt lat="45.58699" lon="2.78949">
        <ele>957.8</ele>
        <time>2021-07-18T14:57:28Z</time>
      </trkpt>
      <trkpt lat="45.58699" lon="2.78932">
        <ele>956.6</ele>
        <time>2021-07-18T14:57:40Z</time>
      </trkpt>
      <trkpt lat="45.58693" lon="2.78915">
        <ele>955.3</ele>
        <time>2021-07-18T14:57:54Z</time>
      </trkpt>
      <trkpt lat="45.58688" lon="2.78892">
        <ele>954.9</ele>
        <time>2021-07-18T14:58:07Z</time>
      </trkpt>
      <trkpt lat="45.58683" lon="2.78877">
        <ele>954.6</ele>
        <time>2021-07-18T14:58:14Z</time>
      </trkpt>
      <trkpt lat="45.58681" lon="2.78856">
        <ele>954.3</ele>
        <time>2021-07-18T14:58:24Z</time>
      </trkpt>
      <trkpt lat="45.58684" lon="2.78836">
        <ele>954</ele>
        <time>2021-07-18T14:58:36Z</time>
      </trkpt>
      <trkpt lat="45.58682" lon="2.78816">
        <ele>954.6</ele>
        <time>2021-07-18T14:58:46Z</time>
      </trkpt>
      <trkpt lat="45.58681" lon="2.78798">
        <ele>955.3</ele>
        <time>2021-07-18T14:58:56Z</time>
      </trkpt>
      <trkpt lat="45.58682" lon="2.78795">
        <ele>955.4</ele>
        <time>2021-07-18T14:58:58Z</time>
      </trkpt>
      <trkpt lat="45.58686" lon="2.7879">
        <ele>955.5</ele>
        <time>2021-07-18T14:59:02Z</time>
      </trkpt>
      <trkpt lat="45.58689" lon="2.78784">
        <ele>955.6</ele>
        <time>2021-07-18T14:59:07Z</time>
      </trkpt>
      <trkpt lat="45.58692" lon="2.78773">
        <ele>955.8</ele>
        <time>2021-07-18T14:59:17Z</time>
      </trkpt>
      <trkpt lat="45.58694" lon="2.78768">
        <ele>955.8</ele>
        <time>2021-07-18T14:59:30Z</time>
      </trkpt>
      <trkpt lat="45.58697" lon="2.78758">
        <ele>956</ele>
        <time>2021-07-18T14:59:48Z</time>
      </trkpt>
      <trkpt lat="45.58707" lon="2.78741">
        <ele>955.7</ele>
        <time>2021-07-18T15:00:00Z</time>
      </trkpt>
      <trkpt lat="45.58714" lon="2.78726">
        <ele>955.5</ele>
        <time>2021-07-18T15:00:14Z</time>
      </trkpt>
      <trkpt lat="45.58722" lon="2.78712">
        <ele>955</ele>
        <time>2021-07-18T15:00:26Z</time>
      </trkpt>
      <trkpt lat="45.58722" lon="2.78711">
        <ele>955</ele>
        <time>2021-07-18T15:00:27Z</time>
      </trkpt>
      <trkpt lat="45.58734" lon="2.787">
        <ele>954</ele>
        <time>2021-07-18T15:00:37Z</time>
      </trkpt>
      <trkpt lat="45.58735" lon="2.78698">
        <ele>953.8</ele>
        <time>2021-07-18T15:00:39Z</time>
      </trkpt>
      <trkpt lat="45.58738" lon="2.7869">
        <ele>953.5</ele>
        <time>2021-07-18T15:00:44Z</time>
      </trkpt>
      <trkpt lat="45.58745" lon="2.78678">
        <ele>952.7</ele>
        <time>2021-07-18T15:00:55Z</time>
      </trkpt>
      <trkpt lat="45.58746" lon="2.78675">
        <ele>952.5</ele>
        <time>2021-07-18T15:00:57Z</time>
      </trkpt>
      <trkpt lat="45.58749" lon="2.78661">
        <ele>952.1</ele>
        <time>2021-07-18T15:01:05Z</time>
      </trkpt>
      <trkpt lat="45.58751" lon="2.78658">
        <ele>952.5</ele>
        <time>2021-07-18T15:01:07Z</time>
      </trkpt>
      <trkpt lat="45.58754" lon="2.78644">
        <ele>953.3</ele>
        <time>2021-07-18T15:01:15Z</time>
      </trkpt>
      <trkpt lat="45.58756" lon="2.78637">
        <ele>954</ele>
        <time>2021-07-18T15:01:19Z</time>
      </trkpt>
      <trkpt lat="45.58755" lon="2.7863">
        <ele>953.6</ele>
        <time>2021-07-18T15:01:22Z</time>
      </trkpt>
      <trkpt lat="45.58762" lon="2.78609">
        <ele>955.8</ele>
        <time>2021-07-18T15:01:36Z</time>
      </trkpt>
      <trkpt lat="45.58762" lon="2.78598">
        <ele>955.9</ele>
        <time>2021-07-18T15:01:46Z</time>
      </trkpt>
      <trkpt lat="45.58762" lon="2.78597">
        <ele>955.9</ele>
        <time>2021-07-18T15:01:47Z</time>
      </trkpt>
      <trkpt lat="45.58767" lon="2.78583">
        <ele>957.4</ele>
        <time>2021-07-18T15:01:58Z</time>
      </trkpt>
      <trkpt lat="45.58766" lon="2.78573">
        <ele>957.2</ele>
        <time>2021-07-18T15:02:08Z</time>
      </trkpt>
      <trkpt lat="45.58765" lon="2.7856">
        <ele>957.3</ele>
        <time>2021-07-18T15:02:22Z</time>
      </trkpt>
      <trkpt lat="45.58767" lon="2.78557">
        <ele>958.1</ele>
        <time>2021-07-18T15:02:35Z</time>
      </trkpt>
      <trkpt lat="45.58765" lon="2.78554">
        <ele>957.3</ele>
        <time>2021-07-18T15:02:54Z</time>
      </trkpt>
      <trkpt lat="45.58765" lon="2.7855">
        <ele>957.5</ele>
        <time>2021-07-18T15:03:23Z</time>
      </trkpt>
      <trkpt lat="45.58763" lon="2.78543">
        <ele>957</ele>
        <time>2021-07-18T15:03:39Z</time>
      </trkpt>
      <trkpt lat="45.58761" lon="2.78538">
        <ele>956.6</ele>
        <time>2021-07-18T15:03:46Z</time>
      </trkpt>
      <trkpt lat="45.5876" lon="2.78533">
        <ele>956.1</ele>
        <time>2021-07-18T15:03:58Z</time>
      </trkpt>
      <trkpt lat="45.58755" lon="2.78528">
        <ele>954.6</ele>
        <time>2021-07-18T15:04:09Z</time>
      </trkpt>
      <trkpt lat="45.58746" lon="2.78527">
        <ele>952.8</ele>
        <time>2021-07-18T15:04:21Z</time>
      </trkpt>
      <trkpt lat="45.58741" lon="2.7852">
        <ele>952.9</ele>
        <time>2021-07-18T15:04:30Z</time>
      </trkpt>
      <trkpt lat="45.58726" lon="2.78513">
        <ele>953.2</ele>
        <time>2021-07-18T15:04:44Z</time>
      </trkpt>
      <trkpt lat="45.58714" lon="2.7851">
        <ele>953.3</ele>
        <time>2021-07-18T15:04:57Z</time>
      </trkpt>
      <trkpt lat="45.58708" lon="2.78511">
        <ele>953.3</ele>
        <time>2021-07-18T15:05:10Z</time>
      </trkpt>
      <trkpt lat="45.58704" lon="2.78508">
        <ele>953.3</ele>
        <time>2021-07-18T15:05:30Z</time>
      </trkpt>
      <trkpt lat="45.58704" lon="2.78505">
        <ele>953.2</ele>
        <time>2021-07-18T15:05:47Z</time>
      </trkpt>
      <trkpt lat="45.587" lon="2.78504">
        <ele>953.2</ele>
        <time>2021-07-18T15:06:02Z</time>
      </trkpt>
      <trkpt lat="45.58694" lon="2.78499">
        <ele>952.9</ele>
        <time>2021-07-18T15:06:13Z</time>
      </trkpt>
      <trkpt lat="45.58691" lon="2.78495">
        <ele>952.7</ele>
        <time>2021-07-18T15:06:19Z</time>
      </trkpt>
      <trkpt lat="45.58684" lon="2.78488">
        <ele>952.1</ele>
        <time>2021-07-18T15:06:28Z</time>
      </trkpt>
      <trkpt lat="45.58675" lon="2.78471">
        <ele>950.5</ele>
        <time>2021-07-18T15:06:41Z</time>
      </trkpt>
      <trkpt lat="45.58666" lon="2.78455">
        <ele>948.9</ele>
        <time>2021-07-18T15:06:54Z</time>
      </trkpt>
      <trkpt lat="45.58661" lon="2.78447">
        <ele>949.6</ele>
        <time>2021-07-18T15:07:07Z</time>
      </trkpt>
      <trkpt lat="45.58659" lon="2.78439">
        <ele>949.8</ele>
        <time>2021-07-18T15:07:13Z</time>
      </trkpt>
      <trkpt lat="45.58658" lon="2.78423">
        <ele>948.9</ele>
        <time>2021-07-18T15:07:25Z</time>
      </trkpt>
      <trkpt lat="45.58658" lon="2.78411">
        <ele>947.9</ele>
        <time>2021-07-18T15:07:42Z</time>
      </trkpt>
      <trkpt lat="45.58661" lon="2.78399">
        <ele>946.1</ele>
        <time>2021-07-18T15:07:57Z</time>
      </trkpt>
      <trkpt lat="45.58664" lon="2.78374">
        <ele>943.3</ele>
        <time>2021-07-18T15:08:14Z</time>
      </trkpt>
      <trkpt lat="45.58664" lon="2.78354">
        <ele>941.8</ele>
        <time>2021-07-18T15:08:29Z</time>
      </trkpt>
      <trkpt lat="45.58664" lon="2.78335">
        <ele>940.5</ele>
        <time>2021-07-18T15:08:43Z</time>
      </trkpt>
      <trkpt lat="45.58664" lon="2.78329">
        <ele>940.6</ele>
        <time>2021-07-18T15:08:47Z</time>
      </trkpt>
      <trkpt lat="45.58666" lon="2.78313">
        <ele>940.6</ele>
        <time>2021-07-18T15:08:59Z</time>
      </trkpt>
      <trkpt lat="45.5867" lon="2.78296">
        <ele>941</ele>
        <time>2021-07-18T15:09:07Z</time>
      </trkpt>
      <trkpt lat="45.58674" lon="2.78277">
        <ele>941.9</ele>
        <time>2021-07-18T15:09:16Z</time>
      </trkpt>
      <trkpt lat="45.58676" lon="2.78272">
        <ele>942.1</ele>
        <time>2021-07-18T15:09:20Z</time>
      </trkpt>
      <trkpt lat="45.58676" lon="2.78257">
        <ele>942.6</ele>
        <time>2021-07-18T15:09:30Z</time>
      </trkpt>
      <trkpt lat="45.58678" lon="2.78249">
        <ele>943</ele>
        <time>2021-07-18T15:09:35Z</time>
      </trkpt>
      <trkpt lat="45.58679" lon="2.78244">
        <ele>943.4</ele>
        <time>2021-07-18T15:09:38Z</time>
      </trkpt>
      <trkpt lat="45.5868" lon="2.7823">
        <ele>944.4</ele>
        <time>2021-07-18T15:09:46Z</time>
      </trkpt>
      <trkpt lat="45.58685" lon="2.78218">
        <ele>944.8</ele>
        <time>2021-07-18T15:09:57Z</time>
      </trkpt>
      <trkpt lat="45.58696" lon="2.78201">
        <ele>944.5</ele>
        <time>2021-07-18T15:10:13Z</time>
      </trkpt>
      <trkpt lat="45.58699" lon="2.78185">
        <ele>944.6</ele>
        <time>2021-07-18T15:10:22Z</time>
      </trkpt>
      <trkpt lat="45.58704" lon="2.78171">
        <ele>943.8</ele>
        <time>2021-07-18T15:10:33Z</time>
      </trkpt>
      <trkpt lat="45.5871" lon="2.78164">
        <ele>942.9</ele>
        <time>2021-07-18T15:10:45Z</time>
      </trkpt>
      <trkpt lat="45.58713" lon="2.78156">
        <ele>942.6</ele>
        <time>2021-07-18T15:10:59Z</time>
      </trkpt>
      <trkpt lat="45.58717" lon="2.78141">
        <ele>942.3</ele>
        <time>2021-07-18T15:11:11Z</time>
      </trkpt>
      <trkpt lat="45.58718" lon="2.7814">
        <ele>942.2</ele>
        <time>2021-07-18T15:11:12Z</time>
      </trkpt>
      <trkpt lat="45.58719" lon="2.78135">
        <ele>942</ele>
        <time>2021-07-18T15:11:15Z</time>
      </trkpt>
      <trkpt lat="45.58721" lon="2.78128">
        <ele>941.5</ele>
        <time>2021-07-18T15:11:21Z</time>
      </trkpt>
      <trkpt lat="45.58729" lon="2.78115">
        <ele>939.3</ele>
        <time>2021-07-18T15:11:31Z</time>
      </trkpt>
      <trkpt lat="45.58737" lon="2.7809">
        <ele>936</ele>
        <time>2021-07-18T15:11:46Z</time>
      </trkpt>
      <trkpt lat="45.58742" lon="2.78067">
        <ele>933.8</ele>
        <time>2021-07-18T15:11:59Z</time>
      </trkpt>
      <trkpt lat="45.58742" lon="2.78062">
        <ele>933.8</ele>
        <time>2021-07-18T15:12:01Z</time>
      </trkpt>
      <trkpt lat="45.58743" lon="2.78052">
        <ele>933.2</ele>
        <time>2021-07-18T15:12:05Z</time>
      </trkpt>
      <trkpt lat="45.58748" lon="2.78037">
        <ele>930.3</ele>
        <time>2021-07-18T15:12:15Z</time>
      </trkpt>
      <trkpt lat="45.58753" lon="2.78024">
        <ele>930.2</ele>
        <time>2021-07-18T15:12:26Z</time>
      </trkpt>
      <trkpt lat="45.58756" lon="2.78004">
        <ele>930.7</ele>
        <time>2021-07-18T15:12:39Z</time>
      </trkpt>
      <trkpt lat="45.58755" lon="2.77996">
        <ele>930.5</ele>
        <time>2021-07-18T15:12:43Z</time>
      </trkpt>
      <trkpt lat="45.58754" lon="2.77976">
        <ele>929.8</ele>
        <time>2021-07-18T15:12:55Z</time>
      </trkpt>
      <trkpt lat="45.58753" lon="2.7796">
        <ele>929</ele>
        <time>2021-07-18T15:13:07Z</time>
      </trkpt>
      <trkpt lat="45.58751" lon="2.77936">
        <ele>927.7</ele>
        <time>2021-07-18T15:13:21Z</time>
      </trkpt>
      <trkpt lat="45.58748" lon="2.77921">
        <ele>928.4</ele>
        <time>2021-07-18T15:13:29Z</time>
      </trkpt>
      <trkpt lat="45.58747" lon="2.77911">
        <ele>928.7</ele>
        <time>2021-07-18T15:13:34Z</time>
      </trkpt>
      <trkpt lat="45.58744" lon="2.77894">
        <ele>930.3</ele>
        <time>2021-07-18T15:13:42Z</time>
      </trkpt>
      <trkpt lat="45.58743" lon="2.77883">
        <ele>930.7</ele>
        <time>2021-07-18T15:13:47Z</time>
      </trkpt>
      <trkpt lat="45.58742" lon="2.77869">
        <ele>931</ele>
        <time>2021-07-18T15:13:53Z</time>
      </trkpt>
      <trkpt lat="45.58742" lon="2.77866">
        <ele>931.2</ele>
        <time>2021-07-18T15:13:55Z</time>
      </trkpt>
      <trkpt lat="45.5874" lon="2.77861">
        <ele>931.8</ele>
        <time>2021-07-18T15:14:04Z</time>
      </trkpt>
      <trkpt lat="45.58741" lon="2.77862">
        <ele>931.3</ele>
        <time>2021-07-18T15:14:15Z</time>
      </trkpt>
      <trkpt lat="45.5874" lon="2.77861">
        <ele>931.9</ele>
        <time>2021-07-18T15:14:25Z</time>
      </trkpt>
      <trkpt lat="45.58741" lon="2.77861">
        <ele>931.5</ele>
        <time>2021-07-18T15:14:41Z</time>
      </trkpt>
      <trkpt lat="45.58743" lon="2.7786">
        <ele>930.3</ele>
        <time>2021-07-18T15:14:53Z</time>
      </trkpt>
      <trkpt lat="45.58745" lon="2.77858">
        <ele>929.5</ele>
        <time>2021-07-18T15:15:01Z</time>
      </trkpt>
      <trkpt lat="45.58751" lon="2.77855">
        <ele>927.4</ele>
        <time>2021-07-18T15:15:17Z</time>
      </trkpt>
      <trkpt lat="45.58754" lon="2.77851">
        <ele>928</ele>
        <time>2021-07-18T15:15:21Z</time>
      </trkpt>
      <trkpt lat="45.58757" lon="2.77841">
        <ele>928.9</ele>
        <time>2021-07-18T15:15:31Z</time>
      </trkpt>
      <trkpt lat="45.58762" lon="2.7783">
        <ele>929.7</ele>
        <time>2021-07-18T15:15:41Z</time>
      </trkpt>
      <trkpt lat="45.58766" lon="2.77822">
        <ele>930.1</ele>
        <time>2021-07-18T15:15:47Z</time>
      </trkpt>
      <trkpt lat="45.58769" lon="2.77818">
        <ele>930.5</ele>
        <time>2021-07-18T15:15:51Z</time>
      </trkpt>
      <trkpt lat="45.58771" lon="2.77815">
        <ele>930.7</ele>
        <time>2021-07-18T15:15:54Z</time>
      </trkpt>
      <trkpt lat="45.58778" lon="2.77803">
        <ele>931</ele>
        <time>2021-07-18T15:16:06Z</time>
      </trkpt>
      <trkpt lat="45.58785" lon="2.77788">
        <ele>930.7</ele>
        <time>2021-07-18T15:16:19Z</time>
      </trkpt>
      <trkpt lat="45.58788" lon="2.7778">
        <ele>930.3</ele>
        <time>2021-07-18T15:16:23Z</time>
      </trkpt>
      <trkpt lat="45.58794" lon="2.77771">
        <ele>929.7</ele>
        <time>2021-07-18T15:16:28Z</time>
      </trkpt>
      <trkpt lat="45.588" lon="2.77763">
        <ele>929.2</ele>
        <time>2021-07-18T15:16:33Z</time>
      </trkpt>
      <trkpt lat="45.58802" lon="2.77756">
        <ele>928.4</ele>
        <time>2021-07-18T15:16:37Z</time>
      </trkpt>
      <trkpt lat="45.58812" lon="2.77741">
        <ele>927.1</ele>
        <time>2021-07-18T15:16:50Z</time>
      </trkpt>
      <trkpt lat="45.58823" lon="2.77733">
        <ele>926.4</ele>
        <time>2021-07-18T15:17:03Z</time>
      </trkpt>
      <trkpt lat="45.58824" lon="2.7773">
        <ele>926</ele>
        <time>2021-07-18T15:17:05Z</time>
      </trkpt>
      <trkpt lat="45.5885" lon="2.77704">
        <ele>926.1</ele>
        <time>2021-07-18T15:17:24Z</time>
      </trkpt>
      <trkpt lat="45.58864" lon="2.77698">
        <ele>928.6</ele>
        <time>2021-07-18T15:17:32Z</time>
      </trkpt>
      <trkpt lat="45.58882" lon="2.77689">
        <ele>931.9</ele>
        <time>2021-07-18T15:17:52Z</time>
      </trkpt>
      <trkpt lat="45.58891" lon="2.77678">
        <ele>932.7</ele>
        <time>2021-07-18T15:18:07Z</time>
      </trkpt>
      <trkpt lat="45.58893" lon="2.77666">
        <ele>931.6</ele>
        <time>2021-07-18T15:18:20Z</time>
      </trkpt>
      <trkpt lat="45.58895" lon="2.77651">
        <ele>932.4</ele>
        <time>2021-07-18T15:18:35Z</time>
      </trkpt>
      <trkpt lat="45.58898" lon="2.77633">
        <ele>933.4</ele>
        <time>2021-07-18T15:18:48Z</time>
      </trkpt>
      <trkpt lat="45.589" lon="2.77619">
        <ele>934</ele>
        <time>2021-07-18T15:18:57Z</time>
      </trkpt>
      <trkpt lat="45.58902" lon="2.77605">
        <ele>934.6</ele>
        <time>2021-07-18T15:19:10Z</time>
      </trkpt>
      <trkpt lat="45.58912" lon="2.77594">
        <ele>936.8</ele>
        <time>2021-07-18T15:19:24Z</time>
      </trkpt>
      <trkpt lat="45.58924" lon="2.7759">
        <ele>938.1</ele>
        <time>2021-07-18T15:19:40Z</time>
      </trkpt>
      <trkpt lat="45.58935" lon="2.77583">
        <ele>938.2</ele>
        <time>2021-07-18T15:19:55Z</time>
      </trkpt>
      <trkpt lat="45.58937" lon="2.77587">
        <ele>938.3</ele>
        <time>2021-07-18T15:20:04Z</time>
      </trkpt>
      <trkpt lat="45.58938" lon="2.776">
        <ele>938.7</ele>
        <time>2021-07-18T15:20:15Z</time>
      </trkpt>
      <trkpt lat="45.58939" lon="2.77611">
        <ele>939</ele>
        <time>2021-07-18T15:20:31Z</time>
      </trkpt>
      <trkpt lat="45.58943" lon="2.77631">
        <ele>939.7</ele>
        <time>2021-07-18T15:20:45Z</time>
      </trkpt>
      <trkpt lat="45.58946" lon="2.77646">
        <ele>940.4</ele>
        <time>2021-07-18T15:20:56Z</time>
      </trkpt>
      <trkpt lat="45.58946" lon="2.77647">
        <ele>940.5</ele>
        <time>2021-07-18T15:20:57Z</time>
      </trkpt>
      <trkpt lat="45.58948" lon="2.77651">
        <ele>940.8</ele>
        <time>2021-07-18T15:21:00Z</time>
      </trkpt>
      <trkpt lat="45.58959" lon="2.77655">
        <ele>942</ele>
        <time>2021-07-18T15:21:10Z</time>
      </trkpt>
      <trkpt lat="45.58972" lon="2.77667">
        <ele>944</ele>
        <time>2021-07-18T15:21:23Z</time>
      </trkpt>
      <trkpt lat="45.58973" lon="2.77668">
        <ele>944.2</ele>
        <time>2021-07-18T15:21:24Z</time>
      </trkpt>
      <trkpt lat="45.58977" lon="2.77668">
        <ele>944.7</ele>
        <time>2021-07-18T15:21:28Z</time>
      </trkpt>
      <trkpt lat="45.58989" lon="2.77669">
        <ele>946.2</ele>
        <time>2021-07-18T15:21:41Z</time>
      </trkpt>
      <trkpt lat="45.58995" lon="2.7767">
        <ele>947.1</ele>
        <time>2021-07-18T15:21:54Z</time>
      </trkpt>
      <trkpt lat="45.58995" lon="2.77668">
        <ele>946.7</ele>
        <time>2021-07-18T15:22:17Z</time>
      </trkpt>
      <trkpt lat="45.58995" lon="2.77667">
        <ele>946.5</ele>
        <time>2021-07-18T15:22:42Z</time>
      </trkpt>
      <trkpt lat="45.58994" lon="2.77666">
        <ele>946.3</ele>
        <time>2021-07-18T15:23:11Z</time>
      </trkpt>
      <trkpt lat="45.5899" lon="2.77664">
        <ele>945.7</ele>
        <time>2021-07-18T15:23:29Z</time>
      </trkpt>
      <trkpt lat="45.58988" lon="2.77664">
        <ele>945.5</ele>
        <time>2021-07-18T15:23:31Z</time>
      </trkpt>
      <trkpt lat="45.58978" lon="2.77661">
        <ele>944.2</ele>
        <time>2021-07-18T15:23:44Z</time>
      </trkpt>
      <trkpt lat="45.58972" lon="2.77658">
        <ele>943.4</ele>
        <time>2021-07-18T15:23:56Z</time>
      </trkpt>
      <trkpt lat="45.5897" lon="2.77653">
        <ele>942.9</ele>
        <time>2021-07-18T15:24:00Z</time>
      </trkpt>
      <trkpt lat="45.58955" lon="2.77646">
        <ele>941.2</ele>
        <time>2021-07-18T15:24:15Z</time>
      </trkpt>
      <trkpt lat="45.5895" lon="2.77645">
        <ele>940.7</ele>
        <time>2021-07-18T15:24:20Z</time>
      </trkpt>
      <trkpt lat="45.58944" lon="2.77629">
        <ele>939.8</ele>
        <time>2021-07-18T15:24:33Z</time>
      </trkpt>
      <trkpt lat="45.58944" lon="2.77629">
        <ele>939.8</ele>
        <time>2021-07-18T15:24:34Z</time>
      </trkpt>
      <trkpt lat="45.58944" lon="2.77628">
        <ele>939.7</ele>
        <time>2021-07-18T15:24:38Z</time>
      </trkpt>
      <trkpt lat="45.58943" lon="2.77617">
        <ele>939.4</ele>
        <time>2021-07-18T15:24:44Z</time>
      </trkpt>
      <trkpt lat="45.58939" lon="2.77588">
        <ele>938.4</ele>
        <time>2021-07-18T15:25:01Z</time>
      </trkpt>
      <trkpt lat="45.5894" lon="2.77563">
        <ele>937.9</ele>
        <time>2021-07-18T15:25:16Z</time>
      </trkpt>
      <trkpt lat="45.58942" lon="2.77553">
        <ele>937.7</ele>
        <time>2021-07-18T15:25:23Z</time>
      </trkpt>
      <trkpt lat="45.58952" lon="2.77551">
        <ele>937.6</ele>
        <time>2021-07-18T15:25:33Z</time>
      </trkpt>
      <trkpt lat="45.58965" lon="2.77554">
        <ele>937.6</ele>
        <time>2021-07-18T15:25:48Z</time>
      </trkpt>
      <trkpt lat="45.58966" lon="2.77554">
        <ele>937.5</ele>
        <time>2021-07-18T15:25:50Z</time>
      </trkpt>
      <trkpt lat="45.58973" lon="2.7756">
        <ele>937.7</ele>
        <time>2021-07-18T15:25:59Z</time>
      </trkpt>
      <trkpt lat="45.58977" lon="2.77568">
        <ele>938.1</ele>
        <time>2021-07-18T15:26:06Z</time>
      </trkpt>
      <trkpt lat="45.58982" lon="2.7758">
        <ele>938.6</ele>
        <time>2021-07-18T15:26:15Z</time>
      </trkpt>
      <trkpt lat="45.58985" lon="2.77581">
        <ele>938.7</ele>
        <time>2021-07-18T15:26:18Z</time>
      </trkpt>
      <trkpt lat="45.58988" lon="2.77568">
        <ele>938.1</ele>
        <time>2021-07-18T15:26:28Z</time>
      </trkpt>
      <trkpt lat="45.58988" lon="2.77549">
        <ele>937.1</ele>
        <time>2021-07-18T15:26:40Z</time>
      </trkpt>
      <trkpt lat="45.58989" lon="2.77527">
        <ele>935.9</ele>
        <time>2021-07-18T15:26:53Z</time>
      </trkpt>
      <trkpt lat="45.58988" lon="2.77517">
        <ele>935.4</ele>
        <time>2021-07-18T15:27:00Z</time>
      </trkpt>
      <trkpt lat="45.5899" lon="2.77512">
        <ele>935.1</ele>
        <time>2021-07-18T15:27:03Z</time>
      </trkpt>
      <trkpt lat="45.5899" lon="2.77498">
        <ele>934.2</ele>
        <time>2021-07-18T15:27:12Z</time>
      </trkpt>
      <trkpt lat="45.5899" lon="2.77496">
        <ele>934</ele>
        <time>2021-07-18T15:27:13Z</time>
      </trkpt>
      <trkpt lat="45.58992" lon="2.77492">
        <ele>933.3</ele>
        <time>2021-07-18T15:27:16Z</time>
      </trkpt>
      <trkpt lat="45.58988" lon="2.7748">
        <ele>931.9</ele>
        <time>2021-07-18T15:27:23Z</time>
      </trkpt>
      <trkpt lat="45.58987" lon="2.77468">
        <ele>930.3</ele>
        <time>2021-07-18T15:27:31Z</time>
      </trkpt>
      <trkpt lat="45.58983" lon="2.77451">
        <ele>928.1</ele>
        <time>2021-07-18T15:27:42Z</time>
      </trkpt>
      <trkpt lat="45.58982" lon="2.77441">
        <ele>926.8</ele>
        <time>2021-07-18T15:27:49Z</time>
      </trkpt>
      <trkpt lat="45.58981" lon="2.77427">
        <ele>924.9</ele>
        <time>2021-07-18T15:28:00Z</time>
      </trkpt>
      <trkpt lat="45.58969" lon="2.77411">
        <ele>923</ele>
        <time>2021-07-18T15:28:13Z</time>
      </trkpt>
      <trkpt lat="45.58956" lon="2.77399">
        <ele>921.6</ele>
        <time>2021-07-18T15:28:23Z</time>
      </trkpt>
      <trkpt lat="45.58949" lon="2.77397">
        <ele>921.3</ele>
        <time>2021-07-18T15:28:28Z</time>
      </trkpt>
      <trkpt lat="45.58932" lon="2.77386">
        <ele>919.8</ele>
        <time>2021-07-18T15:28:39Z</time>
      </trkpt>
      <trkpt lat="45.58922" lon="2.77381">
        <ele>919.1</ele>
        <time>2021-07-18T15:28:50Z</time>
      </trkpt>
      <trkpt lat="45.58919" lon="2.77379">
        <ele>918.7</ele>
        <time>2021-07-18T15:28:54Z</time>
      </trkpt>
      <trkpt lat="45.58918" lon="2.77373">
        <ele>917.7</ele>
        <time>2021-07-18T15:29:00Z</time>
      </trkpt>
      <trkpt lat="45.58922" lon="2.77366">
        <ele>916.5</ele>
        <time>2021-07-18T15:29:12Z</time>
      </trkpt>
      <trkpt lat="45.58927" lon="2.77358">
        <ele>915.2</ele>
        <time>2021-07-18T15:29:22Z</time>
      </trkpt>
      <trkpt lat="45.58929" lon="2.77348">
        <ele>913.7</ele>
        <time>2021-07-18T15:29:28Z</time>
      </trkpt>
      <trkpt lat="45.5893" lon="2.7734">
        <ele>912.4</ele>
        <time>2021-07-18T15:29:31Z</time>
      </trkpt>
      <trkpt lat="45.58926" lon="2.77311">
        <ele>910.3</ele>
        <time>2021-07-18T15:29:43Z</time>
      </trkpt>
      <trkpt lat="45.5892" lon="2.77304">
        <ele>910</ele>
        <time>2021-07-18T15:29:51Z</time>
      </trkpt>
      <trkpt lat="45.58919" lon="2.77303">
        <ele>909.9</ele>
        <time>2021-07-18T15:29:53Z</time>
      </trkpt>
      <trkpt lat="45.58917" lon="2.77298">
        <ele>909.7</ele>
        <time>2021-07-18T15:29:57Z</time>
      </trkpt>
      <trkpt lat="45.58915" lon="2.77281">
        <ele>909.7</ele>
        <time>2021-07-18T15:30:09Z</time>
      </trkpt>
      <trkpt lat="45.58913" lon="2.7727">
        <ele>910.3</ele>
        <time>2021-07-18T15:30:17Z</time>
      </trkpt>
      <trkpt lat="45.58913" lon="2.77258">
        <ele>910.3</ele>
        <time>2021-07-18T15:30:26Z</time>
      </trkpt>
      <trkpt lat="45.5891" lon="2.77241">
        <ele>911.2</ele>
        <time>2021-07-18T15:30:39Z</time>
      </trkpt>
      <trkpt lat="45.58911" lon="2.77225">
        <ele>910.8</ele>
        <time>2021-07-18T15:30:50Z</time>
      </trkpt>
      <trkpt lat="45.58912" lon="2.77212">
        <ele>910.5</ele>
        <time>2021-07-18T15:30:59Z</time>
      </trkpt>
      <trkpt lat="45.58912" lon="2.77197">
        <ele>910.4</ele>
        <time>2021-07-18T15:31:10Z</time>
      </trkpt>
      <trkpt lat="45.58919" lon="2.77173">
        <ele>907.9</ele>
        <time>2021-07-18T15:31:24Z</time>
      </trkpt>
      <trkpt lat="45.5892" lon="2.7717">
        <ele>907.8</ele>
        <time>2021-07-18T15:31:25Z</time>
      </trkpt>
      <trkpt lat="45.58925" lon="2.77153">
        <ele>907.6</ele>
        <time>2021-07-18T15:31:34Z</time>
      </trkpt>
      <trkpt lat="45.58928" lon="2.77141">
        <ele>907.6</ele>
        <time>2021-07-18T15:31:41Z</time>
      </trkpt>
      <trkpt lat="45.58932" lon="2.77123">
        <ele>907.4</ele>
        <time>2021-07-18T15:31:52Z</time>
      </trkpt>
      <trkpt lat="45.58938" lon="2.77101">
        <ele>907.1</ele>
        <time>2021-07-18T15:32:02Z</time>
      </trkpt>
      <trkpt lat="45.58939" lon="2.77096">
        <ele>907</ele>
        <time>2021-07-18T15:32:04Z</time>
      </trkpt>
      <trkpt lat="45.5894" lon="2.77084">
        <ele>907</ele>
        <time>2021-07-18T15:32:08Z</time>
      </trkpt>
      <trkpt lat="45.58941" lon="2.7708">
        <ele>906.9</ele>
        <time>2021-07-18T15:32:10Z</time>
      </trkpt>
      <trkpt lat="45.58944" lon="2.77067">
        <ele>906.5</ele>
        <time>2021-07-18T15:32:18Z</time>
      </trkpt>
      <trkpt lat="45.58946" lon="2.77057">
        <ele>906.2</ele>
        <time>2021-07-18T15:32:25Z</time>
      </trkpt>
      <trkpt lat="45.58944" lon="2.77046">
        <ele>906.3</ele>
        <time>2021-07-18T15:32:30Z</time>
      </trkpt>
      <trkpt lat="45.58944" lon="2.77037">
        <ele>906.1</ele>
        <time>2021-07-18T15:32:34Z</time>
      </trkpt>
      <trkpt lat="45.58944" lon="2.77015">
        <ele>905.9</ele>
        <time>2021-07-18T15:32:47Z</time>
      </trkpt>
      <trkpt lat="45.58938" lon="2.7699">
        <ele>905.5</ele>
        <time>2021-07-18T15:33:03Z</time>
      </trkpt>
      <trkpt lat="45.58933" lon="2.76969">
        <ele>904.6</ele>
        <time>2021-07-18T15:33:13Z</time>
      </trkpt>
      <trkpt lat="45.58928" lon="2.76949">
        <ele>903.5</ele>
        <time>2021-07-18T15:33:22Z</time>
      </trkpt>
      <trkpt lat="45.58928" lon="2.76946">
        <ele>903.4</ele>
        <time>2021-07-18T15:33:24Z</time>
      </trkpt>
      <trkpt lat="45.58929" lon="2.76934">
        <ele>902.5</ele>
        <time>2021-07-18T15:33:31Z</time>
      </trkpt>
      <trkpt lat="45.58939" lon="2.76925">
        <ele>901.2</ele>
        <time>2021-07-18T15:33:43Z</time>
      </trkpt>
      <trkpt lat="45.58942" lon="2.76923">
        <ele>900.9</ele>
        <time>2021-07-18T15:33:47Z</time>
      </trkpt>
      <trkpt lat="45.58944" lon="2.76923">
        <ele>900.7</ele>
        <time>2021-07-18T15:33:49Z</time>
      </trkpt>
      <trkpt lat="45.58952" lon="2.76915">
        <ele>899.8</ele>
        <time>2021-07-18T15:33:58Z</time>
      </trkpt>
      <trkpt lat="45.58965" lon="2.76908">
        <ele>898.8</ele>
        <time>2021-07-18T15:34:08Z</time>
      </trkpt>
      <trkpt lat="45.58979" lon="2.76901">
        <ele>897.7</ele>
        <time>2021-07-18T15:34:16Z</time>
      </trkpt>
      <trkpt lat="45.58993" lon="2.76878">
        <ele>896.4</ele>
        <time>2021-07-18T15:34:30Z</time>
      </trkpt>
      <trkpt lat="45.58997" lon="2.76863">
        <ele>895.8</ele>
        <time>2021-07-18T15:34:37Z</time>
      </trkpt>
      <trkpt lat="45.58998" lon="2.76855">
        <ele>895.6</ele>
        <time>2021-07-18T15:34:41Z</time>
      </trkpt>
      <trkpt lat="45.59001" lon="2.76826">
        <ele>894.9</ele>
        <time>2021-07-18T15:34:55Z</time>
      </trkpt>
      <trkpt lat="45.59006" lon="2.76808">
        <ele>894.7</ele>
        <time>2021-07-18T15:35:05Z</time>
      </trkpt>
      <trkpt lat="45.59006" lon="2.76806">
        <ele>894.7</ele>
        <time>2021-07-18T15:35:06Z</time>
      </trkpt>
      <trkpt lat="45.59011" lon="2.76786">
        <ele>894.5</ele>
        <time>2021-07-18T15:35:18Z</time>
      </trkpt>
      <trkpt lat="45.59012" lon="2.76785">
        <ele>894.5</ele>
        <time>2021-07-18T15:35:19Z</time>
      </trkpt>
      <trkpt lat="45.59012" lon="2.76766">
        <ele>894.1</ele>
        <time>2021-07-18T15:35:27Z</time>
      </trkpt>
      <trkpt lat="45.59011" lon="2.76755">
        <ele>893.8</ele>
        <time>2021-07-18T15:35:32Z</time>
      </trkpt>
      <trkpt lat="45.59011" lon="2.76733">
        <ele>893.2</ele>
        <time>2021-07-18T15:35:44Z</time>
      </trkpt>
      <trkpt lat="45.59012" lon="2.76713">
        <ele>892.8</ele>
        <time>2021-07-18T15:35:56Z</time>
      </trkpt>
      <trkpt lat="45.59012" lon="2.76697">
        <ele>892.4</ele>
        <time>2021-07-18T15:36:04Z</time>
      </trkpt>
      <trkpt lat="45.59023" lon="2.76684">
        <ele>892.6</ele>
        <time>2021-07-18T15:36:16Z</time>
      </trkpt>
      <trkpt lat="45.59039" lon="2.76666">
        <ele>892.9</ele>
        <time>2021-07-18T15:36:31Z</time>
      </trkpt>
      <trkpt lat="45.59049" lon="2.76639">
        <ele>892.5</ele>
        <time>2021-07-18T15:36:45Z</time>
      </trkpt>
      <trkpt lat="45.59048" lon="2.76602">
        <ele>891.3</ele>
        <time>2021-07-18T15:37:02Z</time>
      </trkpt>
      <trkpt lat="45.59036" lon="2.76576">
        <ele>890.1</ele>
        <time>2021-07-18T15:37:17Z</time>
      </trkpt>
      <trkpt lat="45.59033" lon="2.76567">
        <ele>889.8</ele>
        <time>2021-07-18T15:37:22Z</time>
      </trkpt>
      <trkpt lat="45.59034" lon="2.76561">
        <ele>889.7</ele>
        <time>2021-07-18T15:37:26Z</time>
      </trkpt>
      <trkpt lat="45.59041" lon="2.76551">
        <ele>889.7</ele>
        <time>2021-07-18T15:37:34Z</time>
      </trkpt>
      <trkpt lat="45.59059" lon="2.7655">
        <ele>890.2</ele>
        <time>2021-07-18T15:37:49Z</time>
      </trkpt>
      <trkpt lat="45.59081" lon="2.76557">
        <ele>891</ele>
        <time>2021-07-18T15:38:07Z</time>
      </trkpt>
      <trkpt lat="45.59088" lon="2.76559">
        <ele>891.5</ele>
        <time>2021-07-18T15:38:13Z</time>
      </trkpt>
      <trkpt lat="45.59098" lon="2.76566">
        <ele>892.7</ele>
        <time>2021-07-18T15:38:24Z</time>
      </trkpt>
      <trkpt lat="45.5911" lon="2.76569">
        <ele>893.8</ele>
        <time>2021-07-18T15:38:37Z</time>
      </trkpt>
      <trkpt lat="45.59118" lon="2.76569">
        <ele>894.5</ele>
        <time>2021-07-18T15:38:47Z</time>
      </trkpt>
      <trkpt lat="45.59125" lon="2.76567">
        <ele>895</ele>
        <time>2021-07-18T15:38:55Z</time>
      </trkpt>
      <trkpt lat="45.59128" lon="2.76564">
        <ele>895.2</ele>
        <time>2021-07-18T15:38:58Z</time>
      </trkpt>
      <trkpt lat="45.59135" lon="2.76547">
        <ele>895.3</ele>
        <time>2021-07-18T15:39:09Z</time>
      </trkpt>
      <trkpt lat="45.59139" lon="2.76542">
        <ele>895.5</ele>
        <time>2021-07-18T15:39:13Z</time>
      </trkpt>
      <trkpt lat="45.59146" lon="2.76536">
        <ele>896</ele>
        <time>2021-07-18T15:39:22Z</time>
      </trkpt>
      <trkpt lat="45.59158" lon="2.76534">
        <ele>897</ele>
        <time>2021-07-18T15:39:33Z</time>
      </trkpt>
      <trkpt lat="45.5916" lon="2.76535">
        <ele>897.2</ele>
        <time>2021-07-18T15:39:35Z</time>
      </trkpt>
      <trkpt lat="45.59167" lon="2.7654">
        <ele>898</ele>
        <time>2021-07-18T15:39:46Z</time>
      </trkpt>
      <trkpt lat="45.59166" lon="2.76551">
        <ele>898.1</ele>
        <time>2021-07-18T15:39:59Z</time>
      </trkpt>
      <trkpt lat="45.59163" lon="2.76559">
        <ele>898.1</ele>
        <time>2021-07-18T15:40:06Z</time>
      </trkpt>
      <trkpt lat="45.59157" lon="2.76575">
        <ele>897.9</ele>
        <time>2021-07-18T15:40:18Z</time>
      </trkpt>
      <trkpt lat="45.59156" lon="2.76576">
        <ele>897.9</ele>
        <time>2021-07-18T15:40:19Z</time>
      </trkpt>
      <trkpt lat="45.59151" lon="2.76591">
        <ele>897.8</ele>
        <time>2021-07-18T15:40:27Z</time>
      </trkpt>
      <trkpt lat="45.59159" lon="2.76611">
        <ele>898.7</ele>
        <time>2021-07-18T15:40:37Z</time>
      </trkpt>
      <trkpt lat="45.5916" lon="2.76613">
        <ele>898.8</ele>
        <time>2021-07-18T15:40:38Z</time>
      </trkpt>
      <trkpt lat="45.59172" lon="2.76626">
        <ele>900.1</ele>
        <time>2021-07-18T15:40:51Z</time>
      </trkpt>
      <trkpt lat="45.59184" lon="2.76633">
        <ele>901.5</ele>
        <time>2021-07-18T15:41:00Z</time>
      </trkpt>
      <trkpt lat="45.59195" lon="2.76638">
        <ele>902.8</ele>
        <time>2021-07-18T15:41:09Z</time>
      </trkpt>
      <trkpt lat="45.59202" lon="2.76643">
        <ele>903.8</ele>
        <time>2021-07-18T15:41:17Z</time>
      </trkpt>
      <trkpt lat="45.59214" lon="2.76651">
        <ele>905.5</ele>
        <time>2021-07-18T15:41:28Z</time>
      </trkpt>
      <trkpt lat="45.59233" lon="2.76665">
        <ele>908.6</ele>
        <time>2021-07-18T15:41:40Z</time>
      </trkpt>
      <trkpt lat="45.59253" lon="2.76668">
        <ele>912.4</ele>
        <time>2021-07-18T15:41:55Z</time>
      </trkpt>
      <trkpt lat="45.5927" lon="2.76671">
        <ele>919.2</ele>
        <time>2021-07-18T15:42:08Z</time>
      </trkpt>
      <trkpt lat="45.59288" lon="2.76668">
        <ele>924.9</ele>
        <time>2021-07-18T15:42:21Z</time>
      </trkpt>
      <trkpt lat="45.59302" lon="2.7666">
        <ele>928.3</ele>
        <time>2021-07-18T15:42:33Z</time>
      </trkpt>
      <trkpt lat="45.59314" lon="2.76651">
        <ele>930.2</ele>
        <time>2021-07-18T15:42:44Z</time>
      </trkpt>
      <trkpt lat="45.59322" lon="2.76644">
        <ele>931.2</ele>
        <time>2021-07-18T15:42:57Z</time>
      </trkpt>
      <trkpt lat="45.59336" lon="2.7663">
        <ele>931.1</ele>
        <time>2021-07-18T15:43:12Z</time>
      </trkpt>
      <trkpt lat="45.59348" lon="2.76622">
        <ele>932.9</ele>
        <time>2021-07-18T15:43:28Z</time>
      </trkpt>
      <trkpt lat="45.59362" lon="2.76613">
        <ele>933.9</ele>
        <time>2021-07-18T15:43:40Z</time>
      </trkpt>
      <trkpt lat="45.59371" lon="2.76604">
        <ele>933.3</ele>
        <time>2021-07-18T15:43:49Z</time>
      </trkpt>
      <trkpt lat="45.59382" lon="2.76595">
        <ele>933.1</ele>
        <time>2021-07-18T15:43:59Z</time>
      </trkpt>
      <trkpt lat="45.59395" lon="2.76581">
        <ele>931.4</ele>
        <time>2021-07-18T15:44:13Z</time>
      </trkpt>
      <trkpt lat="45.59399" lon="2.76574">
        <ele>931.4</ele>
        <time>2021-07-18T15:44:23Z</time>
      </trkpt>
      <trkpt lat="45.59408" lon="2.76566">
        <ele>932</ele>
        <time>2021-07-18T15:44:33Z</time>
      </trkpt>
      <trkpt lat="45.59416" lon="2.76548">
        <ele>930.8</ele>
        <time>2021-07-18T15:44:46Z</time>
      </trkpt>
      <trkpt lat="45.59408" lon="2.76518">
        <ele>924.6</ele>
        <time>2021-07-18T15:45:01Z</time>
      </trkpt>
      <trkpt lat="45.59411" lon="2.76498">
        <ele>922.1</ele>
        <time>2021-07-18T15:45:14Z</time>
      </trkpt>
      <trkpt lat="45.59419" lon="2.76488">
        <ele>922.7</ele>
        <time>2021-07-18T15:45:25Z</time>
      </trkpt>
      <trkpt lat="45.59421" lon="2.76483">
        <ele>922.7</ele>
        <time>2021-07-18T15:45:30Z</time>
      </trkpt>
      <trkpt lat="45.59422" lon="2.76475">
        <ele>922.5</ele>
        <time>2021-07-18T15:45:42Z</time>
      </trkpt>
      <trkpt lat="45.59427" lon="2.76465">
        <ele>922.8</ele>
        <time>2021-07-18T15:45:52Z</time>
      </trkpt>
      <trkpt lat="45.59431" lon="2.76459">
        <ele>923.2</ele>
        <time>2021-07-18T15:46:00Z</time>
      </trkpt>
      <trkpt lat="45.5943" lon="2.76457">
        <ele>923.1</ele>
        <time>2021-07-18T15:46:02Z</time>
      </trkpt>
      <trkpt lat="45.59432" lon="2.76453">
        <ele>923.1</ele>
        <time>2021-07-18T15:46:18Z</time>
      </trkpt>
      <trkpt lat="45.5943" lon="2.76458">
        <ele>923</ele>
        <time>2021-07-18T15:46:31Z</time>
      </trkpt>
      <trkpt lat="45.59431" lon="2.76458">
        <ele>923.2</ele>
        <time>2021-07-18T15:46:56Z</time>
      </trkpt>
      <trkpt lat="45.59431" lon="2.76455">
        <ele>923.2</ele>
        <time>2021-07-18T15:47:03Z</time>
      </trkpt>
      <trkpt lat="45.59437" lon="2.76437">
        <ele>923.4</ele>
        <time>2021-07-18T15:47:17Z</time>
      </trkpt>
      <trkpt lat="45.59442" lon="2.76418">
        <ele>923.6</ele>
        <time>2021-07-18T15:47:33Z</time>
      </trkpt>
      <trkpt lat="45.59446" lon="2.7641">
        <ele>924.2</ele>
        <time>2021-07-18T15:47:43Z</time>
      </trkpt>
      <trkpt lat="45.5945" lon="2.76385">
        <ele>924.7</ele>
        <time>2021-07-18T15:47:58Z</time>
      </trkpt>
      <trkpt lat="45.59455" lon="2.76363">
        <ele>925.6</ele>
        <time>2021-07-18T15:48:12Z</time>
      </trkpt>
      <trkpt lat="45.59457" lon="2.76359">
        <ele>925.9</ele>
        <time>2021-07-18T15:48:15Z</time>
      </trkpt>
      <trkpt lat="45.59464" lon="2.76336">
        <ele>927.1</ele>
        <time>2021-07-18T15:48:31Z</time>
      </trkpt>
      <trkpt lat="45.59464" lon="2.76331">
        <ele>927</ele>
        <time>2021-07-18T15:48:44Z</time>
      </trkpt>
      <trkpt lat="45.59461" lon="2.76331">
        <ele>926.4</ele>
        <time>2021-07-18T15:48:49Z</time>
      </trkpt>
      <trkpt lat="45.5946" lon="2.76332">
        <ele>926.2</ele>
        <time>2021-07-18T15:48:51Z</time>
      </trkpt>
      <trkpt lat="45.5946" lon="2.76332">
        <ele>926.1</ele>
        <time>2021-07-18T15:48:52Z</time>
      </trkpt>
      <trkpt lat="45.5946" lon="2.76331">
        <ele>926.1</ele>
        <time>2021-07-18T15:48:53Z</time>
      </trkpt>
      <trkpt lat="45.59451" lon="2.76331">
        <ele>924.4</ele>
        <time>2021-07-18T15:49:07Z</time>
      </trkpt>
      <trkpt lat="45.59444" lon="2.76337">
        <ele>923.3</ele>
        <time>2021-07-18T15:49:15Z</time>
      </trkpt>
      <trkpt lat="45.59442" lon="2.76337">
        <ele>922.8</ele>
        <time>2021-07-18T15:49:17Z</time>
      </trkpt>
      <trkpt lat="45.59429" lon="2.76342">
        <ele>920.4</ele>
        <time>2021-07-18T15:49:31Z</time>
      </trkpt>
      <trkpt lat="45.59426" lon="2.76343">
        <ele>919.9</ele>
        <time>2021-07-18T15:49:34Z</time>
      </trkpt>
    </trkseg>
  </trk>
</gpx>